<?xml version="1.0" encoding="UTF-8" standalone="no" ?>
<gpx xmlns="http://www.topografix.com/GPX/1/1" xmlns:xsi="http://www.w3.org/2001/XMLSchema-instance" xsi:schemaLocation="http://www.topografix.com/GPX/1/1 http://www.topografix.com/GPX/1/1/gpx.xsd" version="1.1" creator="VisuGPX - https://www.visugpx.com">
  <metadata>
    <name>OMS CHENOVE Marche du vendredi 06 avril 2012</name>
    <desc><![CDATA[de Chenove à Chenove en frôlant Corcelles]]></desc>
  </metadata>
  <trk>
    <name><![CDATA[OMS CHENOVE Marche du vendredi 06 avril 2012_1]]></name>
    <trkseg>
      <trkpt lat="47.2945" lon="5.00347">
        <ele>282.373</ele>
        <time>2012-04-06T08:09:14Z</time>
      </trkpt>
      <trkpt lat="47.2945" lon="5.00348">
        <ele>282.379</ele>
        <time>2012-04-06T08:09:25Z</time>
      </trkpt>
      <trkpt lat="47.29462" lon="5.00318">
        <ele>282.347</ele>
        <time>2012-04-06T08:09:36Z</time>
      </trkpt>
      <trkpt lat="47.29478" lon="5.0032">
        <ele>282.35</ele>
        <time>2012-04-06T08:09:47Z</time>
      </trkpt>
      <trkpt lat="47.2951" lon="5.00307">
        <ele>285.224</ele>
        <time>2012-04-06T08:09:58Z</time>
      </trkpt>
      <trkpt lat="47.2951" lon="5.00285">
        <ele>295.535</ele>
        <time>2012-04-06T08:10:09Z</time>
      </trkpt>
      <trkpt lat="47.29517" lon="5.00273">
        <ele>290.253</ele>
        <time>2012-04-06T08:10:20Z</time>
      </trkpt>
      <trkpt lat="47.29518" lon="5.00252">
        <ele>291.009</ele>
        <time>2012-04-06T08:10:31Z</time>
      </trkpt>
      <trkpt lat="47.29522" lon="5.0023">
        <ele>280.471</ele>
        <time>2012-04-06T08:10:42Z</time>
      </trkpt>
      <trkpt lat="47.29528" lon="5.00212">
        <ele>274.262</ele>
        <time>2012-04-06T08:10:53Z</time>
      </trkpt>
      <trkpt lat="47.29538" lon="5.00208">
        <ele>273.174</ele>
        <time>2012-04-06T08:11:04Z</time>
      </trkpt>
      <trkpt lat="47.29552" lon="5.002">
        <ele>277.982</ele>
        <time>2012-04-06T08:11:15Z</time>
      </trkpt>
      <trkpt lat="47.29562" lon="5.0019">
        <ele>284.331</ele>
        <time>2012-04-06T08:11:26Z</time>
      </trkpt>
      <trkpt lat="47.2957" lon="5.00177">
        <ele>271.5</ele>
        <time>2012-04-06T08:11:37Z</time>
      </trkpt>
      <trkpt lat="47.2958" lon="5.0016">
        <ele>286.226</ele>
        <time>2012-04-06T08:11:48Z</time>
      </trkpt>
      <trkpt lat="47.29588" lon="5.00145">
        <ele>287.092</ele>
        <time>2012-04-06T08:11:59Z</time>
      </trkpt>
      <trkpt lat="47.29595" lon="5.00127">
        <ele>286.787</ele>
        <time>2012-04-06T08:12:10Z</time>
      </trkpt>
      <trkpt lat="47.29598" lon="5.00107">
        <ele>289.03</ele>
        <time>2012-04-06T08:12:21Z</time>
      </trkpt>
      <trkpt lat="47.29603" lon="5.00087">
        <ele>290.509</ele>
        <time>2012-04-06T08:12:32Z</time>
      </trkpt>
      <trkpt lat="47.29608" lon="5.00068">
        <ele>290.942</ele>
        <time>2012-04-06T08:12:43Z</time>
      </trkpt>
      <trkpt lat="47.29617" lon="5.00052">
        <ele>291.26</ele>
        <time>2012-04-06T08:12:54Z</time>
      </trkpt>
      <trkpt lat="47.29623" lon="5.00037">
        <ele>290.566</ele>
        <time>2012-04-06T08:13:05Z</time>
      </trkpt>
      <trkpt lat="47.29627" lon="5.00017">
        <ele>293.879</ele>
        <time>2012-04-06T08:13:16Z</time>
      </trkpt>
      <trkpt lat="47.2963" lon="4.99998">
        <ele>294.527</ele>
        <time>2012-04-06T08:13:27Z</time>
      </trkpt>
      <trkpt lat="47.29632" lon="4.9998">
        <ele>295.117</ele>
        <time>2012-04-06T08:13:38Z</time>
      </trkpt>
      <trkpt lat="47.29627" lon="4.99963">
        <ele>295.702</ele>
        <time>2012-04-06T08:13:49Z</time>
      </trkpt>
      <trkpt lat="47.29618" lon="4.99952">
        <ele>295.467</ele>
        <time>2012-04-06T08:14:00Z</time>
      </trkpt>
      <trkpt lat="47.2961" lon="4.99937">
        <ele>296.573</ele>
        <time>2012-04-06T08:14:11Z</time>
      </trkpt>
      <trkpt lat="47.29602" lon="4.99923">
        <ele>297.213</ele>
        <time>2012-04-06T08:14:22Z</time>
      </trkpt>
      <trkpt lat="47.29592" lon="4.9991">
        <ele>298.291</ele>
        <time>2012-04-06T08:14:33Z</time>
      </trkpt>
      <trkpt lat="47.29582" lon="4.99905">
        <ele>299.242</ele>
        <time>2012-04-06T08:14:44Z</time>
      </trkpt>
      <trkpt lat="47.29572" lon="4.99895">
        <ele>292.9</ele>
        <time>2012-04-06T08:14:55Z</time>
      </trkpt>
      <trkpt lat="47.29558" lon="4.99885">
        <ele>293.2</ele>
        <time>2012-04-06T08:15:06Z</time>
      </trkpt>
      <trkpt lat="47.29547" lon="4.99875">
        <ele>293.2</ele>
        <time>2012-04-06T08:15:17Z</time>
      </trkpt>
      <trkpt lat="47.29535" lon="4.9987">
        <ele>293.2</ele>
        <time>2012-04-06T08:15:28Z</time>
      </trkpt>
      <trkpt lat="47.2952" lon="4.99862">
        <ele>293.9</ele>
        <time>2012-04-06T08:15:39Z</time>
      </trkpt>
      <trkpt lat="47.2951" lon="4.99855">
        <ele>294.4</ele>
        <time>2012-04-06T08:15:50Z</time>
      </trkpt>
      <trkpt lat="47.29498" lon="4.99845">
        <ele>306.777</ele>
        <time>2012-04-06T08:16:01Z</time>
      </trkpt>
      <trkpt lat="47.29495" lon="4.99833">
        <ele>295.8</ele>
        <time>2012-04-06T08:16:12Z</time>
      </trkpt>
      <trkpt lat="47.29498" lon="4.99822">
        <ele>297.6</ele>
        <time>2012-04-06T08:16:23Z</time>
      </trkpt>
      <trkpt lat="47.29495" lon="4.99805">
        <ele>300.1</ele>
        <time>2012-04-06T08:16:34Z</time>
      </trkpt>
      <trkpt lat="47.2949" lon="4.99798">
        <ele>301.5</ele>
        <time>2012-04-06T08:16:45Z</time>
      </trkpt>
      <trkpt lat="47.2949" lon="4.99787">
        <ele>304</ele>
        <time>2012-04-06T08:16:56Z</time>
      </trkpt>
      <trkpt lat="47.29495" lon="4.99777">
        <ele>315.991</ele>
        <time>2012-04-06T08:17:07Z</time>
      </trkpt>
      <trkpt lat="47.29498" lon="4.99765">
        <ele>308.7</ele>
        <time>2012-04-06T08:17:18Z</time>
      </trkpt>
      <trkpt lat="47.29498" lon="4.99758">
        <ele>309.7</ele>
        <time>2012-04-06T08:17:29Z</time>
      </trkpt>
      <trkpt lat="47.29498" lon="4.99758">
        <ele>309.7</ele>
        <time>2012-04-06T08:17:40Z</time>
      </trkpt>
      <trkpt lat="47.29498" lon="4.99758">
        <ele>309.7</ele>
        <time>2012-04-06T08:17:51Z</time>
      </trkpt>
      <trkpt lat="47.29498" lon="4.99758">
        <ele>309.7</ele>
        <time>2012-04-06T08:18:02Z</time>
      </trkpt>
      <trkpt lat="47.29498" lon="4.99758">
        <ele>309.7</ele>
        <time>2012-04-06T08:18:13Z</time>
      </trkpt>
      <trkpt lat="47.29498" lon="4.99758">
        <ele>309.7</ele>
        <time>2012-04-06T08:18:24Z</time>
      </trkpt>
      <trkpt lat="47.29498" lon="4.99758">
        <ele>309.7</ele>
        <time>2012-04-06T08:18:35Z</time>
      </trkpt>
      <trkpt lat="47.29498" lon="4.99753">
        <ele>310.4</ele>
        <time>2012-04-06T08:18:46Z</time>
      </trkpt>
      <trkpt lat="47.29495" lon="4.9974">
        <ele>322.798</ele>
        <time>2012-04-06T08:18:57Z</time>
      </trkpt>
      <trkpt lat="47.29485" lon="4.99728">
        <ele>323.768</ele>
        <time>2012-04-06T08:19:08Z</time>
      </trkpt>
      <trkpt lat="47.29475" lon="4.99712">
        <ele>313.7</ele>
        <time>2012-04-06T08:19:19Z</time>
      </trkpt>
      <trkpt lat="47.29467" lon="4.99697">
        <ele>325.328</ele>
        <time>2012-04-06T08:19:30Z</time>
      </trkpt>
      <trkpt lat="47.2946" lon="4.9968">
        <ele>317.4</ele>
        <time>2012-04-06T08:19:41Z</time>
      </trkpt>
      <trkpt lat="47.29448" lon="4.99663">
        <ele>318.6</ele>
        <time>2012-04-06T08:19:52Z</time>
      </trkpt>
      <trkpt lat="47.29438" lon="4.9965">
        <ele>319.2</ele>
        <time>2012-04-06T08:20:03Z</time>
      </trkpt>
      <trkpt lat="47.2943" lon="4.99635">
        <ele>319.8</ele>
        <time>2012-04-06T08:20:14Z</time>
      </trkpt>
      <trkpt lat="47.2943" lon="4.99618">
        <ele>328.304</ele>
        <time>2012-04-06T08:20:25Z</time>
      </trkpt>
      <trkpt lat="47.29427" lon="4.996">
        <ele>330.405</ele>
        <time>2012-04-06T08:20:36Z</time>
      </trkpt>
      <trkpt lat="47.29418" lon="4.99583">
        <ele>331.582</ele>
        <time>2012-04-06T08:20:47Z</time>
      </trkpt>
      <trkpt lat="47.29413" lon="4.9956">
        <ele>332.35</ele>
        <time>2012-04-06T08:20:58Z</time>
      </trkpt>
      <trkpt lat="47.29412" lon="4.99538">
        <ele>334.384</ele>
        <time>2012-04-06T08:21:09Z</time>
      </trkpt>
      <trkpt lat="47.2941" lon="4.99523">
        <ele>335.731</ele>
        <time>2012-04-06T08:21:20Z</time>
      </trkpt>
      <trkpt lat="47.29403" lon="4.99505">
        <ele>333.423</ele>
        <time>2012-04-06T08:21:31Z</time>
      </trkpt>
      <trkpt lat="47.29403" lon="4.99482">
        <ele>332.81</ele>
        <time>2012-04-06T08:21:42Z</time>
      </trkpt>
      <trkpt lat="47.29395" lon="4.99458">
        <ele>331.625</ele>
        <time>2012-04-06T08:21:53Z</time>
      </trkpt>
      <trkpt lat="47.29383" lon="4.99437">
        <ele>333.119</ele>
        <time>2012-04-06T08:22:04Z</time>
      </trkpt>
      <trkpt lat="47.29373" lon="4.99415">
        <ele>336.559</ele>
        <time>2012-04-06T08:22:15Z</time>
      </trkpt>
      <trkpt lat="47.29363" lon="4.99395">
        <ele>337.209</ele>
        <time>2012-04-06T08:22:26Z</time>
      </trkpt>
      <trkpt lat="47.29357" lon="4.99373">
        <ele>336.415</ele>
        <time>2012-04-06T08:22:37Z</time>
      </trkpt>
      <trkpt lat="47.29347" lon="4.99355">
        <ele>334.767</ele>
        <time>2012-04-06T08:22:48Z</time>
      </trkpt>
      <trkpt lat="47.29337" lon="4.99337">
        <ele>335.738</ele>
        <time>2012-04-06T08:22:59Z</time>
      </trkpt>
      <trkpt lat="47.2933" lon="4.99313">
        <ele>337.245</ele>
        <time>2012-04-06T08:23:10Z</time>
      </trkpt>
      <trkpt lat="47.29327" lon="4.99292">
        <ele>339.439</ele>
        <time>2012-04-06T08:23:21Z</time>
      </trkpt>
      <trkpt lat="47.29322" lon="4.9927">
        <ele>340.42</ele>
        <time>2012-04-06T08:23:32Z</time>
      </trkpt>
      <trkpt lat="47.29318" lon="4.99247">
        <ele>341.46</ele>
        <time>2012-04-06T08:23:43Z</time>
      </trkpt>
      <trkpt lat="47.29315" lon="4.99225">
        <ele>343.075</ele>
        <time>2012-04-06T08:23:54Z</time>
      </trkpt>
      <trkpt lat="47.29313" lon="4.99203">
        <ele>344.823</ele>
        <time>2012-04-06T08:24:05Z</time>
      </trkpt>
      <trkpt lat="47.29315" lon="4.99178">
        <ele>346.512</ele>
        <time>2012-04-06T08:24:16Z</time>
      </trkpt>
      <trkpt lat="47.29313" lon="4.99157">
        <ele>347.56</ele>
        <time>2012-04-06T08:24:27Z</time>
      </trkpt>
      <trkpt lat="47.29317" lon="4.99138">
        <ele>348.698</ele>
        <time>2012-04-06T08:24:38Z</time>
      </trkpt>
      <trkpt lat="47.29315" lon="4.99117">
        <ele>349.466</ele>
        <time>2012-04-06T08:24:49Z</time>
      </trkpt>
      <trkpt lat="47.2931" lon="4.99102">
        <ele>350.055</ele>
        <time>2012-04-06T08:25:00Z</time>
      </trkpt>
      <trkpt lat="47.293" lon="4.99083">
        <ele>350.262</ele>
        <time>2012-04-06T08:25:11Z</time>
      </trkpt>
      <trkpt lat="47.29298" lon="4.99067">
        <ele>351.638</ele>
        <time>2012-04-06T08:25:22Z</time>
      </trkpt>
      <trkpt lat="47.29295" lon="4.99048">
        <ele>352.421</ele>
        <time>2012-04-06T08:25:33Z</time>
      </trkpt>
      <trkpt lat="47.29293" lon="4.99035">
        <ele>353.866</ele>
        <time>2012-04-06T08:25:44Z</time>
      </trkpt>
      <trkpt lat="47.29292" lon="4.99017">
        <ele>356.703</ele>
        <time>2012-04-06T08:25:55Z</time>
      </trkpt>
      <trkpt lat="47.29293" lon="4.98993">
        <ele>359.863</ele>
        <time>2012-04-06T08:26:06Z</time>
      </trkpt>
      <trkpt lat="47.29295" lon="4.98972">
        <ele>361.827</ele>
        <time>2012-04-06T08:26:17Z</time>
      </trkpt>
      <trkpt lat="47.29295" lon="4.98952">
        <ele>362.901</ele>
        <time>2012-04-06T08:26:28Z</time>
      </trkpt>
      <trkpt lat="47.29295" lon="4.9893">
        <ele>364.604</ele>
        <time>2012-04-06T08:26:39Z</time>
      </trkpt>
      <trkpt lat="47.29297" lon="4.9891">
        <ele>365.351</ele>
        <time>2012-04-06T08:26:50Z</time>
      </trkpt>
      <trkpt lat="47.29292" lon="4.98888">
        <ele>365.435</ele>
        <time>2012-04-06T08:27:01Z</time>
      </trkpt>
      <trkpt lat="47.29283" lon="4.9887">
        <ele>367.259</ele>
        <time>2012-04-06T08:27:12Z</time>
      </trkpt>
      <trkpt lat="47.29273" lon="4.98852">
        <ele>368.078</ele>
        <time>2012-04-06T08:27:23Z</time>
      </trkpt>
      <trkpt lat="47.29263" lon="4.98835">
        <ele>367.84</ele>
        <time>2012-04-06T08:27:34Z</time>
      </trkpt>
      <trkpt lat="47.29253" lon="4.98818">
        <ele>369.646</ele>
        <time>2012-04-06T08:27:45Z</time>
      </trkpt>
      <trkpt lat="47.29245" lon="4.988">
        <ele>371.296</ele>
        <time>2012-04-06T08:27:56Z</time>
      </trkpt>
      <trkpt lat="47.29235" lon="4.98782">
        <ele>371.517</ele>
        <time>2012-04-06T08:28:07Z</time>
      </trkpt>
      <trkpt lat="47.2922" lon="4.98762">
        <ele>371.574</ele>
        <time>2012-04-06T08:28:18Z</time>
      </trkpt>
      <trkpt lat="47.2921" lon="4.98743">
        <ele>372.599</ele>
        <time>2012-04-06T08:28:29Z</time>
      </trkpt>
      <trkpt lat="47.29215" lon="4.98728">
        <ele>370.484</ele>
        <time>2012-04-06T08:28:40Z</time>
      </trkpt>
      <trkpt lat="47.29223" lon="4.98708">
        <ele>371.313</ele>
        <time>2012-04-06T08:28:51Z</time>
      </trkpt>
      <trkpt lat="47.29232" lon="4.98693">
        <ele>372.684</ele>
        <time>2012-04-06T08:29:02Z</time>
      </trkpt>
      <trkpt lat="47.2924" lon="4.98678">
        <ele>373.086</ele>
        <time>2012-04-06T08:29:13Z</time>
      </trkpt>
      <trkpt lat="47.29253" lon="4.9866">
        <ele>374.445</ele>
        <time>2012-04-06T08:29:24Z</time>
      </trkpt>
      <trkpt lat="47.29263" lon="4.98638">
        <ele>376.713</ele>
        <time>2012-04-06T08:29:35Z</time>
      </trkpt>
      <trkpt lat="47.29273" lon="4.98617">
        <ele>376.443</ele>
        <time>2012-04-06T08:29:46Z</time>
      </trkpt>
      <trkpt lat="47.29282" lon="4.98598">
        <ele>378.174</ele>
        <time>2012-04-06T08:29:57Z</time>
      </trkpt>
      <trkpt lat="47.29292" lon="4.98575">
        <ele>380.037</ele>
        <time>2012-04-06T08:30:08Z</time>
      </trkpt>
      <trkpt lat="47.29303" lon="4.98555">
        <ele>381.637</ele>
        <time>2012-04-06T08:30:19Z</time>
      </trkpt>
      <trkpt lat="47.29315" lon="4.98538">
        <ele>382.586</ele>
        <time>2012-04-06T08:30:30Z</time>
      </trkpt>
      <trkpt lat="47.29325" lon="4.98518">
        <ele>383.18</ele>
        <time>2012-04-06T08:30:41Z</time>
      </trkpt>
      <trkpt lat="47.29337" lon="4.985">
        <ele>383.254</ele>
        <time>2012-04-06T08:30:52Z</time>
      </trkpt>
      <trkpt lat="47.29348" lon="4.98482">
        <ele>384.6</ele>
        <time>2012-04-06T08:31:03Z</time>
      </trkpt>
      <trkpt lat="47.2936" lon="4.98465">
        <ele>384.389</ele>
        <time>2012-04-06T08:31:14Z</time>
      </trkpt>
      <trkpt lat="47.2937" lon="4.98445">
        <ele>384.18</ele>
        <time>2012-04-06T08:31:25Z</time>
      </trkpt>
      <trkpt lat="47.29382" lon="4.98425">
        <ele>384.287</ele>
        <time>2012-04-06T08:31:36Z</time>
      </trkpt>
      <trkpt lat="47.29392" lon="4.98407">
        <ele>384.035</ele>
        <time>2012-04-06T08:31:47Z</time>
      </trkpt>
      <trkpt lat="47.29402" lon="4.98383">
        <ele>384.51</ele>
        <time>2012-04-06T08:31:59Z</time>
      </trkpt>
      <trkpt lat="47.29395" lon="4.98362">
        <ele>384.736</ele>
        <time>2012-04-06T08:32:10Z</time>
      </trkpt>
      <trkpt lat="47.29393" lon="4.98352">
        <ele>385.772</ele>
        <time>2012-04-06T08:32:21Z</time>
      </trkpt>
      <trkpt lat="47.29395" lon="4.98332">
        <ele>385.083</ele>
        <time>2012-04-06T08:32:32Z</time>
      </trkpt>
      <trkpt lat="47.29398" lon="4.9832">
        <ele>384.778</ele>
        <time>2012-04-06T08:32:43Z</time>
      </trkpt>
      <trkpt lat="47.29403" lon="4.983">
        <ele>384.859</ele>
        <time>2012-04-06T08:32:54Z</time>
      </trkpt>
      <trkpt lat="47.29405" lon="4.98277">
        <ele>385.378</ele>
        <time>2012-04-06T08:33:05Z</time>
      </trkpt>
      <trkpt lat="47.2941" lon="4.98273">
        <ele>386.294</ele>
        <time>2012-04-06T08:33:16Z</time>
      </trkpt>
      <trkpt lat="47.2942" lon="4.98287">
        <ele>386.845</ele>
        <time>2012-04-06T08:33:27Z</time>
      </trkpt>
      <trkpt lat="47.29435" lon="4.9829">
        <ele>388.069</ele>
        <time>2012-04-06T08:33:39Z</time>
      </trkpt>
      <trkpt lat="47.29448" lon="4.98307">
        <ele>388.067</ele>
        <time>2012-04-06T08:33:50Z</time>
      </trkpt>
      <trkpt lat="47.29462" lon="4.98323">
        <ele>387.841</ele>
        <time>2012-04-06T08:34:01Z</time>
      </trkpt>
      <trkpt lat="47.29473" lon="4.9833">
        <ele>389.111</ele>
        <time>2012-04-06T08:34:12Z</time>
      </trkpt>
      <trkpt lat="47.2948" lon="4.98333">
        <ele>390.984</ele>
        <time>2012-04-06T08:34:23Z</time>
      </trkpt>
      <trkpt lat="47.29497" lon="4.9834">
        <ele>389.55</ele>
        <time>2012-04-06T08:34:34Z</time>
      </trkpt>
      <trkpt lat="47.2951" lon="4.98352">
        <ele>389.51</ele>
        <time>2012-04-06T08:34:45Z</time>
      </trkpt>
      <trkpt lat="47.29525" lon="4.9836">
        <ele>388.865</ele>
        <time>2012-04-06T08:34:56Z</time>
      </trkpt>
      <trkpt lat="47.29537" lon="4.9837">
        <ele>387.807</ele>
        <time>2012-04-06T08:35:07Z</time>
      </trkpt>
      <trkpt lat="47.2954" lon="4.98383">
        <ele>388.712</ele>
        <time>2012-04-06T08:35:18Z</time>
      </trkpt>
      <trkpt lat="47.29545" lon="4.98405">
        <ele>389.082</ele>
        <time>2012-04-06T08:35:29Z</time>
      </trkpt>
      <trkpt lat="47.2956" lon="4.98412">
        <ele>389.245</ele>
        <time>2012-04-06T08:35:40Z</time>
      </trkpt>
      <trkpt lat="47.29573" lon="4.98422">
        <ele>388.512</ele>
        <time>2012-04-06T08:35:51Z</time>
      </trkpt>
      <trkpt lat="47.29585" lon="4.98435">
        <ele>389.225</ele>
        <time>2012-04-06T08:36:02Z</time>
      </trkpt>
      <trkpt lat="47.296" lon="4.98443">
        <ele>388.883</ele>
        <time>2012-04-06T08:36:13Z</time>
      </trkpt>
      <trkpt lat="47.29613" lon="4.98433">
        <ele>388.836</ele>
        <time>2012-04-06T08:36:24Z</time>
      </trkpt>
      <trkpt lat="47.2962" lon="4.98413">
        <ele>390.011</ele>
        <time>2012-04-06T08:36:35Z</time>
      </trkpt>
      <trkpt lat="47.29625" lon="4.9839">
        <ele>390.658</ele>
        <time>2012-04-06T08:36:46Z</time>
      </trkpt>
      <trkpt lat="47.29632" lon="4.98365">
        <ele>390.692</ele>
        <time>2012-04-06T08:36:57Z</time>
      </trkpt>
      <trkpt lat="47.29637" lon="4.98342">
        <ele>390.621</ele>
        <time>2012-04-06T08:37:08Z</time>
      </trkpt>
      <trkpt lat="47.29642" lon="4.9832">
        <ele>390.139</ele>
        <time>2012-04-06T08:37:19Z</time>
      </trkpt>
      <trkpt lat="47.29648" lon="4.98293">
        <ele>391.619</ele>
        <time>2012-04-06T08:37:30Z</time>
      </trkpt>
      <trkpt lat="47.29653" lon="4.9827">
        <ele>392.258</ele>
        <time>2012-04-06T08:37:41Z</time>
      </trkpt>
      <trkpt lat="47.29658" lon="4.98247">
        <ele>390.926</ele>
        <time>2012-04-06T08:37:52Z</time>
      </trkpt>
      <trkpt lat="47.29663" lon="4.98223">
        <ele>391.298</ele>
        <time>2012-04-06T08:38:03Z</time>
      </trkpt>
      <trkpt lat="47.29668" lon="4.98198">
        <ele>391.485</ele>
        <time>2012-04-06T08:38:14Z</time>
      </trkpt>
      <trkpt lat="47.29673" lon="4.98173">
        <ele>391.129</ele>
        <time>2012-04-06T08:38:25Z</time>
      </trkpt>
      <trkpt lat="47.29677" lon="4.98147">
        <ele>391.516</ele>
        <time>2012-04-06T08:38:36Z</time>
      </trkpt>
      <trkpt lat="47.29682" lon="4.98123">
        <ele>389.536</ele>
        <time>2012-04-06T08:38:47Z</time>
      </trkpt>
      <trkpt lat="47.29688" lon="4.98098">
        <ele>388.602</ele>
        <time>2012-04-06T08:38:58Z</time>
      </trkpt>
      <trkpt lat="47.29693" lon="4.98075">
        <ele>388.074</ele>
        <time>2012-04-06T08:39:09Z</time>
      </trkpt>
      <trkpt lat="47.29698" lon="4.9805">
        <ele>387.403</ele>
        <time>2012-04-06T08:39:20Z</time>
      </trkpt>
      <trkpt lat="47.29703" lon="4.98028">
        <ele>387.722</ele>
        <time>2012-04-06T08:39:31Z</time>
      </trkpt>
      <trkpt lat="47.29707" lon="4.98005">
        <ele>388.159</ele>
        <time>2012-04-06T08:39:42Z</time>
      </trkpt>
      <trkpt lat="47.2971" lon="4.97982">
        <ele>388.079</ele>
        <time>2012-04-06T08:39:53Z</time>
      </trkpt>
      <trkpt lat="47.29715" lon="4.97957">
        <ele>388.992</ele>
        <time>2012-04-06T08:40:04Z</time>
      </trkpt>
      <trkpt lat="47.2972" lon="4.97933">
        <ele>388.924</ele>
        <time>2012-04-06T08:40:15Z</time>
      </trkpt>
      <trkpt lat="47.29725" lon="4.97908">
        <ele>389.836</ele>
        <time>2012-04-06T08:40:26Z</time>
      </trkpt>
      <trkpt lat="47.2973" lon="4.97885">
        <ele>389.086</ele>
        <time>2012-04-06T08:40:37Z</time>
      </trkpt>
      <trkpt lat="47.29735" lon="4.97862">
        <ele>389.029</ele>
        <time>2012-04-06T08:40:48Z</time>
      </trkpt>
      <trkpt lat="47.29742" lon="4.97835">
        <ele>388.119</ele>
        <time>2012-04-06T08:40:59Z</time>
      </trkpt>
      <trkpt lat="47.29745" lon="4.9781">
        <ele>387.413</ele>
        <time>2012-04-06T08:41:10Z</time>
      </trkpt>
      <trkpt lat="47.2975" lon="4.97787">
        <ele>385.772</ele>
        <time>2012-04-06T08:41:21Z</time>
      </trkpt>
      <trkpt lat="47.29755" lon="4.97762">
        <ele>385.447</ele>
        <time>2012-04-06T08:41:32Z</time>
      </trkpt>
      <trkpt lat="47.2976" lon="4.9774">
        <ele>384.642</ele>
        <time>2012-04-06T08:41:43Z</time>
      </trkpt>
      <trkpt lat="47.29765" lon="4.97715">
        <ele>384.153</ele>
        <time>2012-04-06T08:41:54Z</time>
      </trkpt>
      <trkpt lat="47.2977" lon="4.9769">
        <ele>382.446</ele>
        <time>2012-04-06T08:42:05Z</time>
      </trkpt>
      <trkpt lat="47.29775" lon="4.97668">
        <ele>382.864</ele>
        <time>2012-04-06T08:42:16Z</time>
      </trkpt>
      <trkpt lat="47.2978" lon="4.97642">
        <ele>384.509</ele>
        <time>2012-04-06T08:42:27Z</time>
      </trkpt>
      <trkpt lat="47.29785" lon="4.9762">
        <ele>385.754</ele>
        <time>2012-04-06T08:42:38Z</time>
      </trkpt>
      <trkpt lat="47.2979" lon="4.97597">
        <ele>385.685</ele>
        <time>2012-04-06T08:42:49Z</time>
      </trkpt>
      <trkpt lat="47.29793" lon="4.9757">
        <ele>385.885</ele>
        <time>2012-04-06T08:43:00Z</time>
      </trkpt>
      <trkpt lat="47.29798" lon="4.97548">
        <ele>386.782</ele>
        <time>2012-04-06T08:43:11Z</time>
      </trkpt>
      <trkpt lat="47.29803" lon="4.97523">
        <ele>387.111</ele>
        <time>2012-04-06T08:43:22Z</time>
      </trkpt>
      <trkpt lat="47.29808" lon="4.975">
        <ele>387.482</ele>
        <time>2012-04-06T08:43:33Z</time>
      </trkpt>
      <trkpt lat="47.29813" lon="4.97475">
        <ele>387.071</ele>
        <time>2012-04-06T08:43:44Z</time>
      </trkpt>
      <trkpt lat="47.29818" lon="4.9745">
        <ele>386.341</ele>
        <time>2012-04-06T08:43:55Z</time>
      </trkpt>
      <trkpt lat="47.29823" lon="4.97427">
        <ele>387.481</ele>
        <time>2012-04-06T08:44:06Z</time>
      </trkpt>
      <trkpt lat="47.29827" lon="4.97405">
        <ele>389.251</ele>
        <time>2012-04-06T08:44:17Z</time>
      </trkpt>
      <trkpt lat="47.29832" lon="4.97382">
        <ele>390.215</ele>
        <time>2012-04-06T08:44:28Z</time>
      </trkpt>
      <trkpt lat="47.29835" lon="4.97358">
        <ele>391.086</ele>
        <time>2012-04-06T08:44:39Z</time>
      </trkpt>
      <trkpt lat="47.29838" lon="4.97333">
        <ele>392.067</ele>
        <time>2012-04-06T08:44:50Z</time>
      </trkpt>
      <trkpt lat="47.29842" lon="4.97307">
        <ele>392.531</ele>
        <time>2012-04-06T08:45:01Z</time>
      </trkpt>
      <trkpt lat="47.29845" lon="4.97285">
        <ele>391.989</ele>
        <time>2012-04-06T08:45:12Z</time>
      </trkpt>
      <trkpt lat="47.29847" lon="4.9726">
        <ele>392.642</ele>
        <time>2012-04-06T08:45:23Z</time>
      </trkpt>
      <trkpt lat="47.29845" lon="4.97238">
        <ele>392.093</ele>
        <time>2012-04-06T08:45:34Z</time>
      </trkpt>
      <trkpt lat="47.29843" lon="4.97217">
        <ele>391.388</ele>
        <time>2012-04-06T08:45:45Z</time>
      </trkpt>
      <trkpt lat="47.29842" lon="4.97195">
        <ele>390.296</ele>
        <time>2012-04-06T08:45:56Z</time>
      </trkpt>
      <trkpt lat="47.2984" lon="4.9717">
        <ele>389.566</ele>
        <time>2012-04-06T08:46:07Z</time>
      </trkpt>
      <trkpt lat="47.29837" lon="4.97147">
        <ele>387.894</ele>
        <time>2012-04-06T08:46:18Z</time>
      </trkpt>
      <trkpt lat="47.29835" lon="4.9712">
        <ele>388.122</ele>
        <time>2012-04-06T08:46:29Z</time>
      </trkpt>
      <trkpt lat="47.29833" lon="4.97093">
        <ele>387.813</ele>
        <time>2012-04-06T08:46:40Z</time>
      </trkpt>
      <trkpt lat="47.2983" lon="4.97068">
        <ele>386.448</ele>
        <time>2012-04-06T08:46:51Z</time>
      </trkpt>
      <trkpt lat="47.29828" lon="4.97042">
        <ele>385.971</ele>
        <time>2012-04-06T08:47:02Z</time>
      </trkpt>
      <trkpt lat="47.2983" lon="4.97017">
        <ele>385.877</ele>
        <time>2012-04-06T08:47:13Z</time>
      </trkpt>
      <trkpt lat="47.29837" lon="4.96993">
        <ele>384.387</ele>
        <time>2012-04-06T08:47:24Z</time>
      </trkpt>
      <trkpt lat="47.2984" lon="4.96968">
        <ele>383.381</ele>
        <time>2012-04-06T08:47:35Z</time>
      </trkpt>
      <trkpt lat="47.29845" lon="4.96947">
        <ele>384.581</ele>
        <time>2012-04-06T08:47:46Z</time>
      </trkpt>
      <trkpt lat="47.2985" lon="4.96922">
        <ele>385.357</ele>
        <time>2012-04-06T08:47:57Z</time>
      </trkpt>
      <trkpt lat="47.29855" lon="4.969">
        <ele>386.581</ele>
        <time>2012-04-06T08:48:08Z</time>
      </trkpt>
      <trkpt lat="47.29862" lon="4.96882">
        <ele>387.14</ele>
        <time>2012-04-06T08:48:19Z</time>
      </trkpt>
      <trkpt lat="47.29872" lon="4.9686">
        <ele>387.678</ele>
        <time>2012-04-06T08:48:30Z</time>
      </trkpt>
      <trkpt lat="47.29878" lon="4.9684">
        <ele>388.059</ele>
        <time>2012-04-06T08:48:41Z</time>
      </trkpt>
      <trkpt lat="47.29887" lon="4.9682">
        <ele>389.979</ele>
        <time>2012-04-06T08:48:52Z</time>
      </trkpt>
      <trkpt lat="47.29895" lon="4.96795">
        <ele>390.803</ele>
        <time>2012-04-06T08:49:03Z</time>
      </trkpt>
      <trkpt lat="47.29903" lon="4.96775">
        <ele>391.407</ele>
        <time>2012-04-06T08:49:14Z</time>
      </trkpt>
      <trkpt lat="47.29913" lon="4.96753">
        <ele>392.26</ele>
        <time>2012-04-06T08:49:25Z</time>
      </trkpt>
      <trkpt lat="47.29922" lon="4.96732">
        <ele>392.436</ele>
        <time>2012-04-06T08:49:36Z</time>
      </trkpt>
      <trkpt lat="47.29933" lon="4.96713">
        <ele>393.451</ele>
        <time>2012-04-06T08:49:47Z</time>
      </trkpt>
      <trkpt lat="47.29942" lon="4.96697">
        <ele>393.281</ele>
        <time>2012-04-06T08:49:58Z</time>
      </trkpt>
      <trkpt lat="47.29955" lon="4.96677">
        <ele>394.024</ele>
        <time>2012-04-06T08:50:09Z</time>
      </trkpt>
      <trkpt lat="47.29962" lon="4.96655">
        <ele>396.348</ele>
        <time>2012-04-06T08:50:20Z</time>
      </trkpt>
      <trkpt lat="47.29968" lon="4.96635">
        <ele>397.425</ele>
        <time>2012-04-06T08:50:31Z</time>
      </trkpt>
      <trkpt lat="47.29972" lon="4.96615">
        <ele>398.292</ele>
        <time>2012-04-06T08:50:42Z</time>
      </trkpt>
      <trkpt lat="47.29975" lon="4.966">
        <ele>400.284</ele>
        <time>2012-04-06T08:50:53Z</time>
      </trkpt>
      <trkpt lat="47.29975" lon="4.96592">
        <ele>402.347</ele>
        <time>2012-04-06T08:51:04Z</time>
      </trkpt>
      <trkpt lat="47.29975" lon="4.96592">
        <ele>402.252</ele>
        <time>2012-04-06T08:51:15Z</time>
      </trkpt>
      <trkpt lat="47.29975" lon="4.96592">
        <ele>402.252</ele>
        <time>2012-04-06T08:51:26Z</time>
      </trkpt>
      <trkpt lat="47.29975" lon="4.96592">
        <ele>402.325</ele>
        <time>2012-04-06T08:51:37Z</time>
      </trkpt>
      <trkpt lat="47.29975" lon="4.96592">
        <ele>402.325</ele>
        <time>2012-04-06T08:51:48Z</time>
      </trkpt>
      <trkpt lat="47.29975" lon="4.96592">
        <ele>402.325</ele>
        <time>2012-04-06T08:51:59Z</time>
      </trkpt>
      <trkpt lat="47.29975" lon="4.96592">
        <ele>402.325</ele>
        <time>2012-04-06T08:52:10Z</time>
      </trkpt>
      <trkpt lat="47.29975" lon="4.96592">
        <ele>402.325</ele>
        <time>2012-04-06T08:52:21Z</time>
      </trkpt>
      <trkpt lat="47.29975" lon="4.96592">
        <ele>402.325</ele>
        <time>2012-04-06T08:52:32Z</time>
      </trkpt>
      <trkpt lat="47.29975" lon="4.96592">
        <ele>402.325</ele>
        <time>2012-04-06T08:52:43Z</time>
      </trkpt>
      <trkpt lat="47.29975" lon="4.96592">
        <ele>402.325</ele>
        <time>2012-04-06T08:52:54Z</time>
      </trkpt>
      <trkpt lat="47.29975" lon="4.96592">
        <ele>402.325</ele>
        <time>2012-04-06T08:53:05Z</time>
      </trkpt>
      <trkpt lat="47.29975" lon="4.96592">
        <ele>402.325</ele>
        <time>2012-04-06T08:53:16Z</time>
      </trkpt>
      <trkpt lat="47.29975" lon="4.96592">
        <ele>402.325</ele>
        <time>2012-04-06T08:53:27Z</time>
      </trkpt>
      <trkpt lat="47.29975" lon="4.96592">
        <ele>402.325</ele>
        <time>2012-04-06T08:53:38Z</time>
      </trkpt>
      <trkpt lat="47.29975" lon="4.96592">
        <ele>402.325</ele>
        <time>2012-04-06T08:53:49Z</time>
      </trkpt>
      <trkpt lat="47.29975" lon="4.96592">
        <ele>402.325</ele>
        <time>2012-04-06T08:54:00Z</time>
      </trkpt>
      <trkpt lat="47.29975" lon="4.96592">
        <ele>402.325</ele>
        <time>2012-04-06T08:54:11Z</time>
      </trkpt>
      <trkpt lat="47.29975" lon="4.96592">
        <ele>402.325</ele>
        <time>2012-04-06T08:54:22Z</time>
      </trkpt>
      <trkpt lat="47.29975" lon="4.96592">
        <ele>402.325</ele>
        <time>2012-04-06T08:54:33Z</time>
      </trkpt>
      <trkpt lat="47.29975" lon="4.96592">
        <ele>402.325</ele>
        <time>2012-04-06T08:54:44Z</time>
      </trkpt>
      <trkpt lat="47.29975" lon="4.96592">
        <ele>402.325</ele>
        <time>2012-04-06T08:54:55Z</time>
      </trkpt>
      <trkpt lat="47.29977" lon="4.96588">
        <ele>403.266</ele>
        <time>2012-04-06T08:55:06Z</time>
      </trkpt>
      <trkpt lat="47.29982" lon="4.96585">
        <ele>405.228</ele>
        <time>2012-04-06T08:55:17Z</time>
      </trkpt>
      <trkpt lat="47.2999" lon="4.96578">
        <ele>407.743</ele>
        <time>2012-04-06T08:55:28Z</time>
      </trkpt>
      <trkpt lat="47.29995" lon="4.9658">
        <ele>410.838</ele>
        <time>2012-04-06T08:55:39Z</time>
      </trkpt>
      <trkpt lat="47.30003" lon="4.96578">
        <ele>412.463</ele>
        <time>2012-04-06T08:55:50Z</time>
      </trkpt>
      <trkpt lat="47.30015" lon="4.96578">
        <ele>415.93</ele>
        <time>2012-04-06T08:56:01Z</time>
      </trkpt>
      <trkpt lat="47.30027" lon="4.96575">
        <ele>417.915</ele>
        <time>2012-04-06T08:56:12Z</time>
      </trkpt>
      <trkpt lat="47.30038" lon="4.96572">
        <ele>421.046</ele>
        <time>2012-04-06T08:56:23Z</time>
      </trkpt>
      <trkpt lat="47.30048" lon="4.96568">
        <ele>424.631</ele>
        <time>2012-04-06T08:56:34Z</time>
      </trkpt>
      <trkpt lat="47.30058" lon="4.96565">
        <ele>430.081</ele>
        <time>2012-04-06T08:56:45Z</time>
      </trkpt>
      <trkpt lat="47.3007" lon="4.9656">
        <ele>433.075</ele>
        <time>2012-04-06T08:56:56Z</time>
      </trkpt>
      <trkpt lat="47.30078" lon="4.96553">
        <ele>433.153</ele>
        <time>2012-04-06T08:57:07Z</time>
      </trkpt>
      <trkpt lat="47.3008" lon="4.96535">
        <ele>431.525</ele>
        <time>2012-04-06T08:57:18Z</time>
      </trkpt>
      <trkpt lat="47.30078" lon="4.96513">
        <ele>430.102</ele>
        <time>2012-04-06T08:57:29Z</time>
      </trkpt>
      <trkpt lat="47.30075" lon="4.9649">
        <ele>429.464</ele>
        <time>2012-04-06T08:57:40Z</time>
      </trkpt>
      <trkpt lat="47.30073" lon="4.9647">
        <ele>429.464</ele>
        <time>2012-04-06T08:57:51Z</time>
      </trkpt>
      <trkpt lat="47.3007" lon="4.96448">
        <ele>430.652</ele>
        <time>2012-04-06T08:58:02Z</time>
      </trkpt>
      <trkpt lat="47.30067" lon="4.9643">
        <ele>430.519</ele>
        <time>2012-04-06T08:58:13Z</time>
      </trkpt>
      <trkpt lat="47.30063" lon="4.9641">
        <ele>431.877</ele>
        <time>2012-04-06T08:58:24Z</time>
      </trkpt>
      <trkpt lat="47.30055" lon="4.96385">
        <ele>430.69</ele>
        <time>2012-04-06T08:58:35Z</time>
      </trkpt>
      <trkpt lat="47.30048" lon="4.96363">
        <ele>431.551</ele>
        <time>2012-04-06T08:58:46Z</time>
      </trkpt>
      <trkpt lat="47.30042" lon="4.9634">
        <ele>428.325</ele>
        <time>2012-04-06T08:58:57Z</time>
      </trkpt>
      <trkpt lat="47.30038" lon="4.96318">
        <ele>429.12</ele>
        <time>2012-04-06T08:59:08Z</time>
      </trkpt>
      <trkpt lat="47.30032" lon="4.96297">
        <ele>429.615</ele>
        <time>2012-04-06T08:59:19Z</time>
      </trkpt>
      <trkpt lat="47.30027" lon="4.96273">
        <ele>427.849</ele>
        <time>2012-04-06T08:59:30Z</time>
      </trkpt>
      <trkpt lat="47.30033" lon="4.96265">
        <ele>428.303</ele>
        <time>2012-04-06T08:59:41Z</time>
      </trkpt>
      <trkpt lat="47.30038" lon="4.96247">
        <ele>429.805</ele>
        <time>2012-04-06T08:59:52Z</time>
      </trkpt>
      <trkpt lat="47.30028" lon="4.96223">
        <ele>429.16</ele>
        <time>2012-04-06T09:00:03Z</time>
      </trkpt>
      <trkpt lat="47.3002" lon="4.962">
        <ele>428.375</ele>
        <time>2012-04-06T09:00:14Z</time>
      </trkpt>
      <trkpt lat="47.30012" lon="4.96182">
        <ele>427.037</ele>
        <time>2012-04-06T09:00:25Z</time>
      </trkpt>
      <trkpt lat="47.30013" lon="4.96157">
        <ele>428.047</ele>
        <time>2012-04-06T09:00:36Z</time>
      </trkpt>
      <trkpt lat="47.30013" lon="4.96133">
        <ele>428.698</ele>
        <time>2012-04-06T09:00:47Z</time>
      </trkpt>
      <trkpt lat="47.30013" lon="4.9611">
        <ele>428.469</ele>
        <time>2012-04-06T09:00:58Z</time>
      </trkpt>
      <trkpt lat="47.30015" lon="4.96087">
        <ele>429.023</ele>
        <time>2012-04-06T09:01:09Z</time>
      </trkpt>
      <trkpt lat="47.30015" lon="4.96062">
        <ele>429.764</ele>
        <time>2012-04-06T09:01:20Z</time>
      </trkpt>
      <trkpt lat="47.3002" lon="4.96038">
        <ele>430.666</ele>
        <time>2012-04-06T09:01:31Z</time>
      </trkpt>
      <trkpt lat="47.30025" lon="4.96017">
        <ele>431.879</ele>
        <time>2012-04-06T09:01:42Z</time>
      </trkpt>
      <trkpt lat="47.30032" lon="4.95995">
        <ele>433.182</ele>
        <time>2012-04-06T09:01:53Z</time>
      </trkpt>
      <trkpt lat="47.30037" lon="4.95972">
        <ele>434.559</ele>
        <time>2012-04-06T09:02:04Z</time>
      </trkpt>
      <trkpt lat="47.30043" lon="4.95952">
        <ele>435.772</ele>
        <time>2012-04-06T09:02:15Z</time>
      </trkpt>
      <trkpt lat="47.3005" lon="4.95928">
        <ele>436.594</ele>
        <time>2012-04-06T09:02:27Z</time>
      </trkpt>
      <trkpt lat="47.3006" lon="4.95913">
        <ele>436.916</ele>
        <time>2012-04-06T09:02:38Z</time>
      </trkpt>
      <trkpt lat="47.30072" lon="4.95898">
        <ele>437.915</ele>
        <time>2012-04-06T09:02:49Z</time>
      </trkpt>
      <trkpt lat="47.30083" lon="4.95882">
        <ele>439.202</ele>
        <time>2012-04-06T09:03:00Z</time>
      </trkpt>
      <trkpt lat="47.30093" lon="4.95865">
        <ele>440.383</ele>
        <time>2012-04-06T09:03:11Z</time>
      </trkpt>
      <trkpt lat="47.30102" lon="4.95845">
        <ele>440.924</ele>
        <time>2012-04-06T09:03:22Z</time>
      </trkpt>
      <trkpt lat="47.30108" lon="4.95825">
        <ele>439.882</ele>
        <time>2012-04-06T09:03:33Z</time>
      </trkpt>
      <trkpt lat="47.30115" lon="4.95803">
        <ele>438.246</ele>
        <time>2012-04-06T09:03:44Z</time>
      </trkpt>
      <trkpt lat="47.3012" lon="4.95782">
        <ele>438.693</ele>
        <time>2012-04-06T09:03:55Z</time>
      </trkpt>
      <trkpt lat="47.3012" lon="4.95758">
        <ele>438.53</ele>
        <time>2012-04-06T09:04:06Z</time>
      </trkpt>
      <trkpt lat="47.3012" lon="4.95737">
        <ele>439.074</ele>
        <time>2012-04-06T09:04:17Z</time>
      </trkpt>
      <trkpt lat="47.30118" lon="4.95712">
        <ele>439.142</ele>
        <time>2012-04-06T09:04:28Z</time>
      </trkpt>
      <trkpt lat="47.30118" lon="4.95688">
        <ele>436.919</ele>
        <time>2012-04-06T09:04:39Z</time>
      </trkpt>
      <trkpt lat="47.30118" lon="4.95663">
        <ele>434.985</ele>
        <time>2012-04-06T09:04:50Z</time>
      </trkpt>
      <trkpt lat="47.30118" lon="4.95642">
        <ele>434.68</ele>
        <time>2012-04-06T09:05:01Z</time>
      </trkpt>
      <trkpt lat="47.30117" lon="4.95618">
        <ele>432.761</ele>
        <time>2012-04-06T09:05:12Z</time>
      </trkpt>
      <trkpt lat="47.30122" lon="4.95598">
        <ele>431.485</ele>
        <time>2012-04-06T09:05:24Z</time>
      </trkpt>
      <trkpt lat="47.30123" lon="4.95572">
        <ele>429.558</ele>
        <time>2012-04-06T09:05:35Z</time>
      </trkpt>
      <trkpt lat="47.30122" lon="4.95543">
        <ele>427.65</ele>
        <time>2012-04-06T09:05:46Z</time>
      </trkpt>
      <trkpt lat="47.30123" lon="4.9552">
        <ele>427.281</ele>
        <time>2012-04-06T09:05:57Z</time>
      </trkpt>
      <trkpt lat="47.30125" lon="4.95495">
        <ele>428.097</ele>
        <time>2012-04-06T09:06:08Z</time>
      </trkpt>
      <trkpt lat="47.30125" lon="4.95473">
        <ele>426.158</ele>
        <time>2012-04-06T09:06:19Z</time>
      </trkpt>
      <trkpt lat="47.30125" lon="4.95448">
        <ele>425.984</ele>
        <time>2012-04-06T09:06:30Z</time>
      </trkpt>
      <trkpt lat="47.30122" lon="4.95425">
        <ele>423.776</ele>
        <time>2012-04-06T09:06:41Z</time>
      </trkpt>
      <trkpt lat="47.3012" lon="4.95402">
        <ele>422.631</ele>
        <time>2012-04-06T09:06:52Z</time>
      </trkpt>
      <trkpt lat="47.3012" lon="4.95373">
        <ele>421.525</ele>
        <time>2012-04-06T09:07:03Z</time>
      </trkpt>
      <trkpt lat="47.3012" lon="4.95347">
        <ele>423.172</ele>
        <time>2012-04-06T09:07:14Z</time>
      </trkpt>
      <trkpt lat="47.30118" lon="4.95322">
        <ele>424.251</ele>
        <time>2012-04-06T09:07:25Z</time>
      </trkpt>
      <trkpt lat="47.30118" lon="4.95297">
        <ele>425.044</ele>
        <time>2012-04-06T09:07:36Z</time>
      </trkpt>
      <trkpt lat="47.30118" lon="4.95275">
        <ele>424.402</ele>
        <time>2012-04-06T09:07:47Z</time>
      </trkpt>
      <trkpt lat="47.30118" lon="4.95253">
        <ele>425.238</ele>
        <time>2012-04-06T09:07:58Z</time>
      </trkpt>
      <trkpt lat="47.30118" lon="4.9523">
        <ele>426.49</ele>
        <time>2012-04-06T09:08:09Z</time>
      </trkpt>
      <trkpt lat="47.30117" lon="4.95205">
        <ele>428.578</ele>
        <time>2012-04-06T09:08:20Z</time>
      </trkpt>
      <trkpt lat="47.30115" lon="4.95177">
        <ele>430.601</ele>
        <time>2012-04-06T09:08:31Z</time>
      </trkpt>
      <trkpt lat="47.30113" lon="4.95152">
        <ele>430.62</ele>
        <time>2012-04-06T09:08:42Z</time>
      </trkpt>
      <trkpt lat="47.3011" lon="4.95127">
        <ele>430.829</ele>
        <time>2012-04-06T09:08:53Z</time>
      </trkpt>
      <trkpt lat="47.30107" lon="4.95103">
        <ele>427.53</ele>
        <time>2012-04-06T09:09:04Z</time>
      </trkpt>
      <trkpt lat="47.30103" lon="4.95077">
        <ele>428.373</ele>
        <time>2012-04-06T09:09:15Z</time>
      </trkpt>
      <trkpt lat="47.30097" lon="4.95055">
        <ele>430.594</ele>
        <time>2012-04-06T09:09:26Z</time>
      </trkpt>
      <trkpt lat="47.30098" lon="4.9503">
        <ele>426.581</ele>
        <time>2012-04-06T09:09:37Z</time>
      </trkpt>
      <trkpt lat="47.30098" lon="4.95012">
        <ele>426.241</ele>
        <time>2012-04-06T09:09:48Z</time>
      </trkpt>
      <trkpt lat="47.30095" lon="4.94988">
        <ele>425.513</ele>
        <time>2012-04-06T09:09:59Z</time>
      </trkpt>
      <trkpt lat="47.30097" lon="4.94965">
        <ele>426.794</ele>
        <time>2012-04-06T09:10:10Z</time>
      </trkpt>
      <trkpt lat="47.30097" lon="4.94947">
        <ele>427.938</ele>
        <time>2012-04-06T09:10:21Z</time>
      </trkpt>
      <trkpt lat="47.30097" lon="4.94947">
        <ele>427.915</ele>
        <time>2012-04-06T09:10:32Z</time>
      </trkpt>
      <trkpt lat="47.30097" lon="4.94947">
        <ele>427.915</ele>
        <time>2012-04-06T09:10:43Z</time>
      </trkpt>
      <trkpt lat="47.30097" lon="4.94947">
        <ele>427.533</ele>
        <time>2012-04-06T09:10:54Z</time>
      </trkpt>
      <trkpt lat="47.30097" lon="4.94947">
        <ele>427.533</ele>
        <time>2012-04-06T09:11:05Z</time>
      </trkpt>
      <trkpt lat="47.30097" lon="4.94947">
        <ele>427.533</ele>
        <time>2012-04-06T09:11:16Z</time>
      </trkpt>
      <trkpt lat="47.30097" lon="4.94947">
        <ele>427.533</ele>
        <time>2012-04-06T09:11:27Z</time>
      </trkpt>
      <trkpt lat="47.30097" lon="4.94945">
        <ele>426.899</ele>
        <time>2012-04-06T09:11:38Z</time>
      </trkpt>
      <trkpt lat="47.30097" lon="4.94945">
        <ele>426.59</ele>
        <time>2012-04-06T09:11:49Z</time>
      </trkpt>
      <trkpt lat="47.30105" lon="4.94947">
        <ele>425.818</ele>
        <time>2012-04-06T09:12:00Z</time>
      </trkpt>
      <trkpt lat="47.30113" lon="4.94953">
        <ele>426.189</ele>
        <time>2012-04-06T09:12:11Z</time>
      </trkpt>
      <trkpt lat="47.3012" lon="4.94967">
        <ele>427.215</ele>
        <time>2012-04-06T09:12:22Z</time>
      </trkpt>
      <trkpt lat="47.30125" lon="4.94975">
        <ele>429.634</ele>
        <time>2012-04-06T09:12:33Z</time>
      </trkpt>
      <trkpt lat="47.30137" lon="4.94985">
        <ele>428.419</ele>
        <time>2012-04-06T09:12:44Z</time>
      </trkpt>
      <trkpt lat="47.30148" lon="4.94995">
        <ele>430.408</ele>
        <time>2012-04-06T09:12:55Z</time>
      </trkpt>
      <trkpt lat="47.30157" lon="4.95008">
        <ele>432.101</ele>
        <time>2012-04-06T09:13:06Z</time>
      </trkpt>
      <trkpt lat="47.30163" lon="4.95025">
        <ele>431.087</ele>
        <time>2012-04-06T09:13:17Z</time>
      </trkpt>
      <trkpt lat="47.30172" lon="4.95045">
        <ele>431.084</ele>
        <time>2012-04-06T09:13:28Z</time>
      </trkpt>
      <trkpt lat="47.30177" lon="4.95065">
        <ele>432.919</ele>
        <time>2012-04-06T09:13:39Z</time>
      </trkpt>
      <trkpt lat="47.30183" lon="4.95083">
        <ele>433.359</ele>
        <time>2012-04-06T09:13:50Z</time>
      </trkpt>
      <trkpt lat="47.30187" lon="4.95108">
        <ele>434.176</ele>
        <time>2012-04-06T09:14:01Z</time>
      </trkpt>
      <trkpt lat="47.30193" lon="4.95128">
        <ele>431.835</ele>
        <time>2012-04-06T09:14:12Z</time>
      </trkpt>
      <trkpt lat="47.30203" lon="4.95155">
        <ele>430.381</ele>
        <time>2012-04-06T09:14:23Z</time>
      </trkpt>
      <trkpt lat="47.30215" lon="4.95178">
        <ele>427.777</ele>
        <time>2012-04-06T09:14:34Z</time>
      </trkpt>
      <trkpt lat="47.30215" lon="4.95195">
        <ele>426.919</ele>
        <time>2012-04-06T09:14:45Z</time>
      </trkpt>
      <trkpt lat="47.3022" lon="4.9522">
        <ele>426.54</ele>
        <time>2012-04-06T09:14:56Z</time>
      </trkpt>
      <trkpt lat="47.30225" lon="4.95248">
        <ele>426.136</ele>
        <time>2012-04-06T09:15:07Z</time>
      </trkpt>
      <trkpt lat="47.30228" lon="4.95273">
        <ele>425.093</ele>
        <time>2012-04-06T09:15:18Z</time>
      </trkpt>
      <trkpt lat="47.30233" lon="4.95302">
        <ele>422.03</ele>
        <time>2012-04-06T09:15:29Z</time>
      </trkpt>
      <trkpt lat="47.30237" lon="4.9533">
        <ele>421.333</ele>
        <time>2012-04-06T09:15:40Z</time>
      </trkpt>
      <trkpt lat="47.30248" lon="4.95355">
        <ele>420.803</ele>
        <time>2012-04-06T09:15:51Z</time>
      </trkpt>
      <trkpt lat="47.30257" lon="4.9538">
        <ele>420.233</ele>
        <time>2012-04-06T09:16:02Z</time>
      </trkpt>
      <trkpt lat="47.30268" lon="4.95403">
        <ele>419.782</ele>
        <time>2012-04-06T09:16:14Z</time>
      </trkpt>
      <trkpt lat="47.30277" lon="4.9543">
        <ele>418.335</ele>
        <time>2012-04-06T09:16:25Z</time>
      </trkpt>
      <trkpt lat="47.30285" lon="4.95453">
        <ele>414.638</ele>
        <time>2012-04-06T09:16:36Z</time>
      </trkpt>
      <trkpt lat="47.30298" lon="4.95465">
        <ele>413.961</ele>
        <time>2012-04-06T09:16:47Z</time>
      </trkpt>
      <trkpt lat="47.30302" lon="4.95488">
        <ele>413.536</ele>
        <time>2012-04-06T09:16:58Z</time>
      </trkpt>
      <trkpt lat="47.30307" lon="4.95508">
        <ele>407.587</ele>
        <time>2012-04-06T09:17:09Z</time>
      </trkpt>
      <trkpt lat="47.3032" lon="4.95533">
        <ele>404.745</ele>
        <time>2012-04-06T09:17:20Z</time>
      </trkpt>
      <trkpt lat="47.3033" lon="4.95563">
        <ele>404.876</ele>
        <time>2012-04-06T09:17:31Z</time>
      </trkpt>
      <trkpt lat="47.30343" lon="4.95588">
        <ele>402.275</ele>
        <time>2012-04-06T09:17:42Z</time>
      </trkpt>
      <trkpt lat="47.3036" lon="4.95612">
        <ele>404.47</ele>
        <time>2012-04-06T09:17:54Z</time>
      </trkpt>
      <trkpt lat="47.30372" lon="4.95633">
        <ele>403.949</ele>
        <time>2012-04-06T09:18:05Z</time>
      </trkpt>
      <trkpt lat="47.3038" lon="4.95653">
        <ele>404.021</ele>
        <time>2012-04-06T09:18:16Z</time>
      </trkpt>
      <trkpt lat="47.30388" lon="4.95672">
        <ele>401.983</ele>
        <time>2012-04-06T09:18:27Z</time>
      </trkpt>
      <trkpt lat="47.304" lon="4.9569">
        <ele>400.806</ele>
        <time>2012-04-06T09:18:38Z</time>
      </trkpt>
      <trkpt lat="47.30412" lon="4.95712">
        <ele>400.257</ele>
        <time>2012-04-06T09:18:49Z</time>
      </trkpt>
      <trkpt lat="47.3042" lon="4.95733">
        <ele>399.068</ele>
        <time>2012-04-06T09:19:00Z</time>
      </trkpt>
      <trkpt lat="47.30442" lon="4.95745">
        <ele>400.83</ele>
        <time>2012-04-06T09:19:11Z</time>
      </trkpt>
      <trkpt lat="47.30457" lon="4.95757">
        <ele>398.065</ele>
        <time>2012-04-06T09:19:22Z</time>
      </trkpt>
      <trkpt lat="47.30473" lon="4.95768">
        <ele>398.576</ele>
        <time>2012-04-06T09:19:33Z</time>
      </trkpt>
      <trkpt lat="47.30487" lon="4.95785">
        <ele>395.413</ele>
        <time>2012-04-06T09:19:44Z</time>
      </trkpt>
      <trkpt lat="47.30505" lon="4.95792">
        <ele>394.668</ele>
        <time>2012-04-06T09:19:55Z</time>
      </trkpt>
      <trkpt lat="47.30523" lon="4.95802">
        <ele>392.076</ele>
        <time>2012-04-06T09:20:06Z</time>
      </trkpt>
      <trkpt lat="47.3054" lon="4.95812">
        <ele>391.874</ele>
        <time>2012-04-06T09:20:17Z</time>
      </trkpt>
      <trkpt lat="47.30553" lon="4.95825">
        <ele>394.573</ele>
        <time>2012-04-06T09:20:28Z</time>
      </trkpt>
      <trkpt lat="47.30568" lon="4.95842">
        <ele>393.093</ele>
        <time>2012-04-06T09:20:39Z</time>
      </trkpt>
      <trkpt lat="47.30585" lon="4.95855">
        <ele>393.424</ele>
        <time>2012-04-06T09:20:50Z</time>
      </trkpt>
      <trkpt lat="47.30598" lon="4.95872">
        <ele>389.722</ele>
        <time>2012-04-06T09:21:01Z</time>
      </trkpt>
      <trkpt lat="47.30612" lon="4.95882">
        <ele>390.144</ele>
        <time>2012-04-06T09:21:12Z</time>
      </trkpt>
      <trkpt lat="47.30618" lon="4.959">
        <ele>392.152</ele>
        <time>2012-04-06T09:21:23Z</time>
      </trkpt>
      <trkpt lat="47.30627" lon="4.9592">
        <ele>391.326</ele>
        <time>2012-04-06T09:21:34Z</time>
      </trkpt>
      <trkpt lat="47.30637" lon="4.95938">
        <ele>392.245</ele>
        <time>2012-04-06T09:21:45Z</time>
      </trkpt>
      <trkpt lat="47.30643" lon="4.9596">
        <ele>390.938</ele>
        <time>2012-04-06T09:21:56Z</time>
      </trkpt>
      <trkpt lat="47.30657" lon="4.95977">
        <ele>389.98</ele>
        <time>2012-04-06T09:22:07Z</time>
      </trkpt>
      <trkpt lat="47.30672" lon="4.95992">
        <ele>386.536</ele>
        <time>2012-04-06T09:22:18Z</time>
      </trkpt>
      <trkpt lat="47.30692" lon="4.96002">
        <ele>382.159</ele>
        <time>2012-04-06T09:22:29Z</time>
      </trkpt>
      <trkpt lat="47.30708" lon="4.96007">
        <ele>378.847</ele>
        <time>2012-04-06T09:22:40Z</time>
      </trkpt>
      <trkpt lat="47.30735" lon="4.9602">
        <ele>374.515</ele>
        <time>2012-04-06T09:22:51Z</time>
      </trkpt>
      <trkpt lat="47.30763" lon="4.96027">
        <ele>371.024</ele>
        <time>2012-04-06T09:23:02Z</time>
      </trkpt>
      <trkpt lat="47.30783" lon="4.96033">
        <ele>371.435</ele>
        <time>2012-04-06T09:23:13Z</time>
      </trkpt>
      <trkpt lat="47.30802" lon="4.96042">
        <ele>369.561</ele>
        <time>2012-04-06T09:23:24Z</time>
      </trkpt>
      <trkpt lat="47.30823" lon="4.96043">
        <ele>368.394</ele>
        <time>2012-04-06T09:23:35Z</time>
      </trkpt>
      <trkpt lat="47.3084" lon="4.96052">
        <ele>366.542</ele>
        <time>2012-04-06T09:23:46Z</time>
      </trkpt>
      <trkpt lat="47.30857" lon="4.96055">
        <ele>365.674</ele>
        <time>2012-04-06T09:23:57Z</time>
      </trkpt>
      <trkpt lat="47.30873" lon="4.96062">
        <ele>366.519</ele>
        <time>2012-04-06T09:24:08Z</time>
      </trkpt>
      <trkpt lat="47.30887" lon="4.96073">
        <ele>366.296</ele>
        <time>2012-04-06T09:24:19Z</time>
      </trkpt>
      <trkpt lat="47.30903" lon="4.96087">
        <ele>364.031</ele>
        <time>2012-04-06T09:24:30Z</time>
      </trkpt>
      <trkpt lat="47.30918" lon="4.961">
        <ele>360.969</ele>
        <time>2012-04-06T09:24:41Z</time>
      </trkpt>
      <trkpt lat="47.30935" lon="4.96113">
        <ele>359.027</ele>
        <time>2012-04-06T09:24:52Z</time>
      </trkpt>
      <trkpt lat="47.30953" lon="4.96123">
        <ele>359.044</ele>
        <time>2012-04-06T09:25:04Z</time>
      </trkpt>
      <trkpt lat="47.3097" lon="4.96138">
        <ele>358.622</ele>
        <time>2012-04-06T09:25:15Z</time>
      </trkpt>
      <trkpt lat="47.30985" lon="4.9615">
        <ele>357.237</ele>
        <time>2012-04-06T09:25:26Z</time>
      </trkpt>
      <trkpt lat="47.31002" lon="4.96165">
        <ele>357.285</ele>
        <time>2012-04-06T09:25:37Z</time>
      </trkpt>
      <trkpt lat="47.31015" lon="4.96183">
        <ele>354.11</ele>
        <time>2012-04-06T09:25:48Z</time>
      </trkpt>
      <trkpt lat="47.31028" lon="4.962">
        <ele>352.698</ele>
        <time>2012-04-06T09:25:59Z</time>
      </trkpt>
      <trkpt lat="47.3104" lon="4.96213">
        <ele>353.011</ele>
        <time>2012-04-06T09:26:10Z</time>
      </trkpt>
      <trkpt lat="47.3105" lon="4.96237">
        <ele>349.025</ele>
        <time>2012-04-06T09:26:21Z</time>
      </trkpt>
      <trkpt lat="47.31058" lon="4.96262">
        <ele>329.5</ele>
        <time>2012-04-06T09:26:32Z</time>
      </trkpt>
      <trkpt lat="47.31065" lon="4.96282">
        <ele>346.54</ele>
        <time>2012-04-06T09:26:43Z</time>
      </trkpt>
      <trkpt lat="47.31073" lon="4.96303">
        <ele>345.893</ele>
        <time>2012-04-06T09:26:54Z</time>
      </trkpt>
      <trkpt lat="47.31083" lon="4.96327">
        <ele>345.088</ele>
        <time>2012-04-06T09:27:05Z</time>
      </trkpt>
      <trkpt lat="47.31097" lon="4.96348">
        <ele>344.759</ele>
        <time>2012-04-06T09:27:16Z</time>
      </trkpt>
      <trkpt lat="47.31107" lon="4.96373">
        <ele>347.272</ele>
        <time>2012-04-06T09:27:27Z</time>
      </trkpt>
      <trkpt lat="47.31118" lon="4.9639">
        <ele>346.949</ele>
        <time>2012-04-06T09:27:38Z</time>
      </trkpt>
      <trkpt lat="47.3113" lon="4.9641">
        <ele>345.681</ele>
        <time>2012-04-06T09:27:49Z</time>
      </trkpt>
      <trkpt lat="47.31138" lon="4.96433">
        <ele>344.968</ele>
        <time>2012-04-06T09:28:00Z</time>
      </trkpt>
      <trkpt lat="47.31143" lon="4.9646">
        <ele>344.507</ele>
        <time>2012-04-06T09:28:11Z</time>
      </trkpt>
      <trkpt lat="47.31148" lon="4.9648">
        <ele>341.945</ele>
        <time>2012-04-06T09:28:22Z</time>
      </trkpt>
      <trkpt lat="47.31152" lon="4.96502">
        <ele>342.998</ele>
        <time>2012-04-06T09:28:33Z</time>
      </trkpt>
      <trkpt lat="47.31157" lon="4.96522">
        <ele>343.292</ele>
        <time>2012-04-06T09:28:44Z</time>
      </trkpt>
      <trkpt lat="47.31157" lon="4.96543">
        <ele>346.428</ele>
        <time>2012-04-06T09:28:55Z</time>
      </trkpt>
      <trkpt lat="47.3116" lon="4.96567">
        <ele>346.811</ele>
        <time>2012-04-06T09:29:06Z</time>
      </trkpt>
      <trkpt lat="47.31162" lon="4.96592">
        <ele>346.684</ele>
        <time>2012-04-06T09:29:17Z</time>
      </trkpt>
      <trkpt lat="47.3116" lon="4.96618">
        <ele>346.807</ele>
        <time>2012-04-06T09:29:29Z</time>
      </trkpt>
      <trkpt lat="47.31157" lon="4.96642">
        <ele>345.68</ele>
        <time>2012-04-06T09:29:40Z</time>
      </trkpt>
      <trkpt lat="47.31155" lon="4.96663">
        <ele>347.319</ele>
        <time>2012-04-06T09:29:51Z</time>
      </trkpt>
      <trkpt lat="47.31158" lon="4.96688">
        <ele>349.734</ele>
        <time>2012-04-06T09:30:02Z</time>
      </trkpt>
      <trkpt lat="47.31158" lon="4.96708">
        <ele>353.701</ele>
        <time>2012-04-06T09:30:13Z</time>
      </trkpt>
      <trkpt lat="47.31168" lon="4.96738">
        <ele>352.486</ele>
        <time>2012-04-06T09:30:24Z</time>
      </trkpt>
      <trkpt lat="47.31177" lon="4.96765">
        <ele>352.665</ele>
        <time>2012-04-06T09:30:35Z</time>
      </trkpt>
      <trkpt lat="47.31187" lon="4.96787">
        <ele>353.865</ele>
        <time>2012-04-06T09:30:46Z</time>
      </trkpt>
      <trkpt lat="47.31192" lon="4.96795">
        <ele>353.816</ele>
        <time>2012-04-06T09:30:57Z</time>
      </trkpt>
      <trkpt lat="47.31192" lon="4.96795">
        <ele>353.816</ele>
        <time>2012-04-06T09:31:08Z</time>
      </trkpt>
      <trkpt lat="47.31192" lon="4.96797">
        <ele>352.016</ele>
        <time>2012-04-06T09:31:19Z</time>
      </trkpt>
      <trkpt lat="47.31192" lon="4.96797">
        <ele>351.444</ele>
        <time>2012-04-06T09:31:30Z</time>
      </trkpt>
      <trkpt lat="47.31192" lon="4.96797">
        <ele>316.6</ele>
        <time>2012-04-06T09:31:41Z</time>
      </trkpt>
      <trkpt lat="47.31192" lon="4.96797">
        <ele>350.918</ele>
        <time>2012-04-06T09:31:52Z</time>
      </trkpt>
      <trkpt lat="47.31192" lon="4.96797">
        <ele>350.918</ele>
        <time>2012-04-06T09:32:03Z</time>
      </trkpt>
      <trkpt lat="47.31192" lon="4.96797">
        <ele>350.918</ele>
        <time>2012-04-06T09:32:14Z</time>
      </trkpt>
      <trkpt lat="47.31192" lon="4.96797">
        <ele>350.918</ele>
        <time>2012-04-06T09:32:25Z</time>
      </trkpt>
      <trkpt lat="47.31192" lon="4.96797">
        <ele>351.071</ele>
        <time>2012-04-06T09:32:36Z</time>
      </trkpt>
      <trkpt lat="47.31192" lon="4.96797">
        <ele>350.821</ele>
        <time>2012-04-06T09:32:47Z</time>
      </trkpt>
      <trkpt lat="47.31192" lon="4.96797">
        <ele>350.285</ele>
        <time>2012-04-06T09:32:58Z</time>
      </trkpt>
      <trkpt lat="47.31192" lon="4.96798">
        <ele>349.945</ele>
        <time>2012-04-06T09:33:09Z</time>
      </trkpt>
      <trkpt lat="47.31192" lon="4.96798">
        <ele>349.637</ele>
        <time>2012-04-06T09:33:20Z</time>
      </trkpt>
      <trkpt lat="47.31193" lon="4.96798">
        <ele>348.752</ele>
        <time>2012-04-06T09:33:31Z</time>
      </trkpt>
      <trkpt lat="47.31193" lon="4.96798">
        <ele>348.673</ele>
        <time>2012-04-06T09:33:42Z</time>
      </trkpt>
      <trkpt lat="47.31193" lon="4.96798">
        <ele>348.673</ele>
        <time>2012-04-06T09:33:53Z</time>
      </trkpt>
      <trkpt lat="47.31193" lon="4.96798">
        <ele>348.673</ele>
        <time>2012-04-06T09:34:04Z</time>
      </trkpt>
      <trkpt lat="47.31193" lon="4.96798">
        <ele>348.91</ele>
        <time>2012-04-06T09:34:15Z</time>
      </trkpt>
      <trkpt lat="47.31193" lon="4.96798">
        <ele>348.91</ele>
        <time>2012-04-06T09:34:26Z</time>
      </trkpt>
      <trkpt lat="47.31192" lon="4.96802">
        <ele>348.291</ele>
        <time>2012-04-06T09:34:37Z</time>
      </trkpt>
      <trkpt lat="47.31183" lon="4.9681">
        <ele>347.984</ele>
        <time>2012-04-06T09:34:48Z</time>
      </trkpt>
      <trkpt lat="47.31172" lon="4.96815">
        <ele>347.953</ele>
        <time>2012-04-06T09:34:59Z</time>
      </trkpt>
      <trkpt lat="47.31158" lon="4.9682">
        <ele>347.677</ele>
        <time>2012-04-06T09:35:10Z</time>
      </trkpt>
      <trkpt lat="47.31142" lon="4.96827">
        <ele>347.654</ele>
        <time>2012-04-06T09:35:21Z</time>
      </trkpt>
      <trkpt lat="47.31128" lon="4.96833">
        <ele>349.71</ele>
        <time>2012-04-06T09:35:32Z</time>
      </trkpt>
      <trkpt lat="47.31115" lon="4.96838">
        <ele>351.349</ele>
        <time>2012-04-06T09:35:43Z</time>
      </trkpt>
      <trkpt lat="47.311" lon="4.96845">
        <ele>352</ele>
        <time>2012-04-06T09:35:54Z</time>
      </trkpt>
      <trkpt lat="47.31083" lon="4.96857">
        <ele>351.737</ele>
        <time>2012-04-06T09:36:05Z</time>
      </trkpt>
      <trkpt lat="47.31072" lon="4.96868">
        <ele>355.338</ele>
        <time>2012-04-06T09:36:16Z</time>
      </trkpt>
      <trkpt lat="47.31058" lon="4.96883">
        <ele>360.618</ele>
        <time>2012-04-06T09:36:27Z</time>
      </trkpt>
      <trkpt lat="47.31047" lon="4.969">
        <ele>363.745</ele>
        <time>2012-04-06T09:36:38Z</time>
      </trkpt>
      <trkpt lat="47.31037" lon="4.96917">
        <ele>366.098</ele>
        <time>2012-04-06T09:36:49Z</time>
      </trkpt>
      <trkpt lat="47.31025" lon="4.9693">
        <ele>371.55</ele>
        <time>2012-04-06T09:37:00Z</time>
      </trkpt>
      <trkpt lat="47.31013" lon="4.96948">
        <ele>371.321</ele>
        <time>2012-04-06T09:37:11Z</time>
      </trkpt>
      <trkpt lat="47.31002" lon="4.96965">
        <ele>372.426</ele>
        <time>2012-04-06T09:37:22Z</time>
      </trkpt>
      <trkpt lat="47.3099" lon="4.9698">
        <ele>375.99</ele>
        <time>2012-04-06T09:37:33Z</time>
      </trkpt>
      <trkpt lat="47.3098" lon="4.96993">
        <ele>378.913</ele>
        <time>2012-04-06T09:37:44Z</time>
      </trkpt>
      <trkpt lat="47.30968" lon="4.9701">
        <ele>381.26</ele>
        <time>2012-04-06T09:37:55Z</time>
      </trkpt>
      <trkpt lat="47.30957" lon="4.97027">
        <ele>383.791</ele>
        <time>2012-04-06T09:38:06Z</time>
      </trkpt>
      <trkpt lat="47.30943" lon="4.97042">
        <ele>385.898</ele>
        <time>2012-04-06T09:38:17Z</time>
      </trkpt>
      <trkpt lat="47.3093" lon="4.97058">
        <ele>385.359</ele>
        <time>2012-04-06T09:38:28Z</time>
      </trkpt>
      <trkpt lat="47.30917" lon="4.97072">
        <ele>387.415</ele>
        <time>2012-04-06T09:38:39Z</time>
      </trkpt>
      <trkpt lat="47.30905" lon="4.97087">
        <ele>390.844</ele>
        <time>2012-04-06T09:38:50Z</time>
      </trkpt>
      <trkpt lat="47.30895" lon="4.97105">
        <ele>391.369</ele>
        <time>2012-04-06T09:39:01Z</time>
      </trkpt>
      <trkpt lat="47.30887" lon="4.97125">
        <ele>393.517</ele>
        <time>2012-04-06T09:39:12Z</time>
      </trkpt>
      <trkpt lat="47.3088" lon="4.97145">
        <ele>395.035</ele>
        <time>2012-04-06T09:39:23Z</time>
      </trkpt>
      <trkpt lat="47.30872" lon="4.97167">
        <ele>396.405</ele>
        <time>2012-04-06T09:39:34Z</time>
      </trkpt>
      <trkpt lat="47.30868" lon="4.9719">
        <ele>396.525</ele>
        <time>2012-04-06T09:39:45Z</time>
      </trkpt>
      <trkpt lat="47.30865" lon="4.97212">
        <ele>397.232</ele>
        <time>2012-04-06T09:39:56Z</time>
      </trkpt>
      <trkpt lat="47.30865" lon="4.97233">
        <ele>399.123</ele>
        <time>2012-04-06T09:40:07Z</time>
      </trkpt>
      <trkpt lat="47.30865" lon="4.97255">
        <ele>398.434</ele>
        <time>2012-04-06T09:40:18Z</time>
      </trkpt>
      <trkpt lat="47.30862" lon="4.97277">
        <ele>398.687</ele>
        <time>2012-04-06T09:40:29Z</time>
      </trkpt>
      <trkpt lat="47.30862" lon="4.97298">
        <ele>400.452</ele>
        <time>2012-04-06T09:40:40Z</time>
      </trkpt>
      <trkpt lat="47.3086" lon="4.97322">
        <ele>401.1</ele>
        <time>2012-04-06T09:40:51Z</time>
      </trkpt>
      <trkpt lat="47.30855" lon="4.9734">
        <ele>403.241</ele>
        <time>2012-04-06T09:41:02Z</time>
      </trkpt>
      <trkpt lat="47.3085" lon="4.97358">
        <ele>404.081</ele>
        <time>2012-04-06T09:41:13Z</time>
      </trkpt>
      <trkpt lat="47.30842" lon="4.97378">
        <ele>405.885</ele>
        <time>2012-04-06T09:41:24Z</time>
      </trkpt>
      <trkpt lat="47.30833" lon="4.97398">
        <ele>406.737</ele>
        <time>2012-04-06T09:41:35Z</time>
      </trkpt>
      <trkpt lat="47.30827" lon="4.97417">
        <ele>407.195</ele>
        <time>2012-04-06T09:41:46Z</time>
      </trkpt>
      <trkpt lat="47.3082" lon="4.97438">
        <ele>405.011</ele>
        <time>2012-04-06T09:41:57Z</time>
      </trkpt>
      <trkpt lat="47.30812" lon="4.9746">
        <ele>402.788</ele>
        <time>2012-04-06T09:42:08Z</time>
      </trkpt>
      <trkpt lat="47.30807" lon="4.97482">
        <ele>399.739</ele>
        <time>2012-04-06T09:42:19Z</time>
      </trkpt>
      <trkpt lat="47.308" lon="4.97505">
        <ele>398.196</ele>
        <time>2012-04-06T09:42:30Z</time>
      </trkpt>
      <trkpt lat="47.30795" lon="4.97527">
        <ele>396.286</ele>
        <time>2012-04-06T09:42:41Z</time>
      </trkpt>
      <trkpt lat="47.3079" lon="4.97548">
        <ele>395.694</ele>
        <time>2012-04-06T09:42:52Z</time>
      </trkpt>
      <trkpt lat="47.30785" lon="4.97572">
        <ele>395.297</ele>
        <time>2012-04-06T09:43:03Z</time>
      </trkpt>
      <trkpt lat="47.30778" lon="4.97593">
        <ele>394.629</ele>
        <time>2012-04-06T09:43:14Z</time>
      </trkpt>
      <trkpt lat="47.30773" lon="4.97617">
        <ele>393.981</ele>
        <time>2012-04-06T09:43:25Z</time>
      </trkpt>
      <trkpt lat="47.30767" lon="4.97638">
        <ele>391.705</ele>
        <time>2012-04-06T09:43:36Z</time>
      </trkpt>
      <trkpt lat="47.3076" lon="4.97662">
        <ele>390.779</ele>
        <time>2012-04-06T09:43:47Z</time>
      </trkpt>
      <trkpt lat="47.30753" lon="4.97683">
        <ele>389.012</ele>
        <time>2012-04-06T09:43:58Z</time>
      </trkpt>
      <trkpt lat="47.30747" lon="4.97707">
        <ele>389.56</ele>
        <time>2012-04-06T09:44:09Z</time>
      </trkpt>
      <trkpt lat="47.3074" lon="4.97728">
        <ele>390.803</ele>
        <time>2012-04-06T09:44:20Z</time>
      </trkpt>
      <trkpt lat="47.30733" lon="4.97752">
        <ele>390.948</ele>
        <time>2012-04-06T09:44:31Z</time>
      </trkpt>
      <trkpt lat="47.3073" lon="4.97775">
        <ele>390.157</ele>
        <time>2012-04-06T09:44:42Z</time>
      </trkpt>
      <trkpt lat="47.3073" lon="4.978">
        <ele>388.52</ele>
        <time>2012-04-06T09:44:53Z</time>
      </trkpt>
      <trkpt lat="47.30737" lon="4.97822">
        <ele>387.611</ele>
        <time>2012-04-06T09:45:04Z</time>
      </trkpt>
      <trkpt lat="47.30748" lon="4.97842">
        <ele>386.662</ele>
        <time>2012-04-06T09:45:15Z</time>
      </trkpt>
      <trkpt lat="47.30762" lon="4.97858">
        <ele>385.734</ele>
        <time>2012-04-06T09:45:26Z</time>
      </trkpt>
      <trkpt lat="47.30775" lon="4.97873">
        <ele>385.913</ele>
        <time>2012-04-06T09:45:37Z</time>
      </trkpt>
      <trkpt lat="47.30787" lon="4.97887">
        <ele>385.451</ele>
        <time>2012-04-06T09:45:48Z</time>
      </trkpt>
      <trkpt lat="47.308" lon="4.97902">
        <ele>384.224</ele>
        <time>2012-04-06T09:45:59Z</time>
      </trkpt>
      <trkpt lat="47.30798" lon="4.97922">
        <ele>382.808</ele>
        <time>2012-04-06T09:46:10Z</time>
      </trkpt>
      <trkpt lat="47.30788" lon="4.97938">
        <ele>382.868</ele>
        <time>2012-04-06T09:46:21Z</time>
      </trkpt>
      <trkpt lat="47.30777" lon="4.97958">
        <ele>382.266</ele>
        <time>2012-04-06T09:46:32Z</time>
      </trkpt>
      <trkpt lat="47.30765" lon="4.97977">
        <ele>382.237</ele>
        <time>2012-04-06T09:46:43Z</time>
      </trkpt>
      <trkpt lat="47.30753" lon="4.97997">
        <ele>381.379</ele>
        <time>2012-04-06T09:46:54Z</time>
      </trkpt>
      <trkpt lat="47.30742" lon="4.98017">
        <ele>381.668</ele>
        <time>2012-04-06T09:47:05Z</time>
      </trkpt>
      <trkpt lat="47.30728" lon="4.98035">
        <ele>381.278</ele>
        <time>2012-04-06T09:47:16Z</time>
      </trkpt>
      <trkpt lat="47.30718" lon="4.98055">
        <ele>380.092</ele>
        <time>2012-04-06T09:47:27Z</time>
      </trkpt>
      <trkpt lat="47.30707" lon="4.98075">
        <ele>380.232</ele>
        <time>2012-04-06T09:47:38Z</time>
      </trkpt>
      <trkpt lat="47.30693" lon="4.98093">
        <ele>379.082</ele>
        <time>2012-04-06T09:47:49Z</time>
      </trkpt>
      <trkpt lat="47.30682" lon="4.98113">
        <ele>378.052</ele>
        <time>2012-04-06T09:48:00Z</time>
      </trkpt>
      <trkpt lat="47.30672" lon="4.98132">
        <ele>378.162</ele>
        <time>2012-04-06T09:48:11Z</time>
      </trkpt>
      <trkpt lat="47.3066" lon="4.98152">
        <ele>375.632</ele>
        <time>2012-04-06T09:48:22Z</time>
      </trkpt>
      <trkpt lat="47.3065" lon="4.98172">
        <ele>374.835</ele>
        <time>2012-04-06T09:48:33Z</time>
      </trkpt>
      <trkpt lat="47.30638" lon="4.98192">
        <ele>374.637</ele>
        <time>2012-04-06T09:48:44Z</time>
      </trkpt>
      <trkpt lat="47.30627" lon="4.98212">
        <ele>374.559</ele>
        <time>2012-04-06T09:48:55Z</time>
      </trkpt>
      <trkpt lat="47.30617" lon="4.98232">
        <ele>374.2</ele>
        <time>2012-04-06T09:49:06Z</time>
      </trkpt>
      <trkpt lat="47.3061" lon="4.98243">
        <ele>374.503</ele>
        <time>2012-04-06T09:49:17Z</time>
      </trkpt>
      <trkpt lat="47.3061" lon="4.98243">
        <ele>374.731</ele>
        <time>2012-04-06T09:49:28Z</time>
      </trkpt>
      <trkpt lat="47.3061" lon="4.98245">
        <ele>373.804</ele>
        <time>2012-04-06T09:49:39Z</time>
      </trkpt>
      <trkpt lat="47.3061" lon="4.98245">
        <ele>373.804</ele>
        <time>2012-04-06T09:49:50Z</time>
      </trkpt>
      <trkpt lat="47.3061" lon="4.98245">
        <ele>373.669</ele>
        <time>2012-04-06T09:50:01Z</time>
      </trkpt>
      <trkpt lat="47.3061" lon="4.98245">
        <ele>373.669</ele>
        <time>2012-04-06T09:50:12Z</time>
      </trkpt>
      <trkpt lat="47.3061" lon="4.98247">
        <ele>374.053</ele>
        <time>2012-04-06T09:50:23Z</time>
      </trkpt>
      <trkpt lat="47.3061" lon="4.98247">
        <ele>374.126</ele>
        <time>2012-04-06T09:50:34Z</time>
      </trkpt>
      <trkpt lat="47.3061" lon="4.98247">
        <ele>374.08</ele>
        <time>2012-04-06T09:50:45Z</time>
      </trkpt>
      <trkpt lat="47.30605" lon="4.98255">
        <ele>373.259</ele>
        <time>2012-04-06T09:50:56Z</time>
      </trkpt>
      <trkpt lat="47.30595" lon="4.98262">
        <ele>373.133</ele>
        <time>2012-04-06T09:51:07Z</time>
      </trkpt>
      <trkpt lat="47.30582" lon="4.98265">
        <ele>374.104</ele>
        <time>2012-04-06T09:51:18Z</time>
      </trkpt>
      <trkpt lat="47.30568" lon="4.98268">
        <ele>374.384</ele>
        <time>2012-04-06T09:51:29Z</time>
      </trkpt>
      <trkpt lat="47.30555" lon="4.9827">
        <ele>375.562</ele>
        <time>2012-04-06T09:51:40Z</time>
      </trkpt>
      <trkpt lat="47.30545" lon="4.98258">
        <ele>376.575</ele>
        <time>2012-04-06T09:51:51Z</time>
      </trkpt>
      <trkpt lat="47.30535" lon="4.98242">
        <ele>377.265</ele>
        <time>2012-04-06T09:52:02Z</time>
      </trkpt>
      <trkpt lat="47.30523" lon="4.98225">
        <ele>377.334</ele>
        <time>2012-04-06T09:52:13Z</time>
      </trkpt>
      <trkpt lat="47.30513" lon="4.98208">
        <ele>377.23</ele>
        <time>2012-04-06T09:52:24Z</time>
      </trkpt>
      <trkpt lat="47.30503" lon="4.98192">
        <ele>378.801</ele>
        <time>2012-04-06T09:52:35Z</time>
      </trkpt>
      <trkpt lat="47.30492" lon="4.98175">
        <ele>380.013</ele>
        <time>2012-04-06T09:52:46Z</time>
      </trkpt>
      <trkpt lat="47.30478" lon="4.9816">
        <ele>380.142</ele>
        <time>2012-04-06T09:52:57Z</time>
      </trkpt>
      <trkpt lat="47.30467" lon="4.98143">
        <ele>380.575</ele>
        <time>2012-04-06T09:53:08Z</time>
      </trkpt>
      <trkpt lat="47.30453" lon="4.98128">
        <ele>379.875</ele>
        <time>2012-04-06T09:53:19Z</time>
      </trkpt>
      <trkpt lat="47.3044" lon="4.98118">
        <ele>380.493</ele>
        <time>2012-04-06T09:53:30Z</time>
      </trkpt>
      <trkpt lat="47.30423" lon="4.98117">
        <ele>380.343</ele>
        <time>2012-04-06T09:53:41Z</time>
      </trkpt>
      <trkpt lat="47.30407" lon="4.98117">
        <ele>380.974</ele>
        <time>2012-04-06T09:53:52Z</time>
      </trkpt>
      <trkpt lat="47.3039" lon="4.98117">
        <ele>381.113</ele>
        <time>2012-04-06T09:54:03Z</time>
      </trkpt>
      <trkpt lat="47.30373" lon="4.98122">
        <ele>381.554</ele>
        <time>2012-04-06T09:54:14Z</time>
      </trkpt>
      <trkpt lat="47.30357" lon="4.98125">
        <ele>381.153</ele>
        <time>2012-04-06T09:54:25Z</time>
      </trkpt>
      <trkpt lat="47.3034" lon="4.98123">
        <ele>380.686</ele>
        <time>2012-04-06T09:54:36Z</time>
      </trkpt>
      <trkpt lat="47.30323" lon="4.9812">
        <ele>381.376</ele>
        <time>2012-04-06T09:54:47Z</time>
      </trkpt>
      <trkpt lat="47.30307" lon="4.98117">
        <ele>381.67</ele>
        <time>2012-04-06T09:54:58Z</time>
      </trkpt>
      <trkpt lat="47.3029" lon="4.9812">
        <ele>383.161</ele>
        <time>2012-04-06T09:55:09Z</time>
      </trkpt>
      <trkpt lat="47.30275" lon="4.9813">
        <ele>384.739</ele>
        <time>2012-04-06T09:55:20Z</time>
      </trkpt>
      <trkpt lat="47.30262" lon="4.98145">
        <ele>386.526</ele>
        <time>2012-04-06T09:55:31Z</time>
      </trkpt>
      <trkpt lat="47.30248" lon="4.9816">
        <ele>385.937</ele>
        <time>2012-04-06T09:55:42Z</time>
      </trkpt>
      <trkpt lat="47.30237" lon="4.98172">
        <ele>386.243</ele>
        <time>2012-04-06T09:55:53Z</time>
      </trkpt>
      <trkpt lat="47.3022" lon="4.9817">
        <ele>387.067</ele>
        <time>2012-04-06T09:56:04Z</time>
      </trkpt>
      <trkpt lat="47.30208" lon="4.9817">
        <ele>388.912</ele>
        <time>2012-04-06T09:56:15Z</time>
      </trkpt>
      <trkpt lat="47.30192" lon="4.98163">
        <ele>391.222</ele>
        <time>2012-04-06T09:56:26Z</time>
      </trkpt>
      <trkpt lat="47.30177" lon="4.9816">
        <ele>392.366</ele>
        <time>2012-04-06T09:56:37Z</time>
      </trkpt>
      <trkpt lat="47.30165" lon="4.9817">
        <ele>393.579</ele>
        <time>2012-04-06T09:56:48Z</time>
      </trkpt>
      <trkpt lat="47.30163" lon="4.98193">
        <ele>394.97</ele>
        <time>2012-04-06T09:56:59Z</time>
      </trkpt>
      <trkpt lat="47.30162" lon="4.98212">
        <ele>395.415</ele>
        <time>2012-04-06T09:57:10Z</time>
      </trkpt>
      <trkpt lat="47.30158" lon="4.98237">
        <ele>397.008</ele>
        <time>2012-04-06T09:57:21Z</time>
      </trkpt>
      <trkpt lat="47.30153" lon="4.98263">
        <ele>396.191</ele>
        <time>2012-04-06T09:57:32Z</time>
      </trkpt>
      <trkpt lat="47.30147" lon="4.98287">
        <ele>398.267</ele>
        <time>2012-04-06T09:57:43Z</time>
      </trkpt>
      <trkpt lat="47.30142" lon="4.9831">
        <ele>398.36</ele>
        <time>2012-04-06T09:57:54Z</time>
      </trkpt>
      <trkpt lat="47.30135" lon="4.98332">
        <ele>399.834</ele>
        <time>2012-04-06T09:58:05Z</time>
      </trkpt>
      <trkpt lat="47.3013" lon="4.98353">
        <ele>402.198</ele>
        <time>2012-04-06T09:58:16Z</time>
      </trkpt>
      <trkpt lat="47.30123" lon="4.98375">
        <ele>401.954</ele>
        <time>2012-04-06T09:58:27Z</time>
      </trkpt>
      <trkpt lat="47.30118" lon="4.98393">
        <ele>402.761</ele>
        <time>2012-04-06T09:58:38Z</time>
      </trkpt>
      <trkpt lat="47.30113" lon="4.98415">
        <ele>403.529</ele>
        <time>2012-04-06T09:58:49Z</time>
      </trkpt>
      <trkpt lat="47.30105" lon="4.9843">
        <ele>405.486</ele>
        <time>2012-04-06T09:59:00Z</time>
      </trkpt>
      <trkpt lat="47.30097" lon="4.9845">
        <ele>406.338</ele>
        <time>2012-04-06T09:59:11Z</time>
      </trkpt>
      <trkpt lat="47.30087" lon="4.98468">
        <ele>406.629</ele>
        <time>2012-04-06T09:59:22Z</time>
      </trkpt>
      <trkpt lat="47.30077" lon="4.98487">
        <ele>406.621</ele>
        <time>2012-04-06T09:59:33Z</time>
      </trkpt>
      <trkpt lat="47.30065" lon="4.98505">
        <ele>407.377</ele>
        <time>2012-04-06T09:59:44Z</time>
      </trkpt>
      <trkpt lat="47.30057" lon="4.98523">
        <ele>407.253</ele>
        <time>2012-04-06T09:59:55Z</time>
      </trkpt>
      <trkpt lat="47.30045" lon="4.9854">
        <ele>407.109</ele>
        <time>2012-04-06T10:00:06Z</time>
      </trkpt>
      <trkpt lat="47.30035" lon="4.98558">
        <ele>407.536</ele>
        <time>2012-04-06T10:00:17Z</time>
      </trkpt>
      <trkpt lat="47.30027" lon="4.98578">
        <ele>407.688</ele>
        <time>2012-04-06T10:00:28Z</time>
      </trkpt>
      <trkpt lat="47.30018" lon="4.986">
        <ele>407.983</ele>
        <time>2012-04-06T10:00:39Z</time>
      </trkpt>
      <trkpt lat="47.30008" lon="4.98618">
        <ele>408.642</ele>
        <time>2012-04-06T10:00:50Z</time>
      </trkpt>
      <trkpt lat="47.3" lon="4.98638">
        <ele>408.159</ele>
        <time>2012-04-06T10:01:01Z</time>
      </trkpt>
      <trkpt lat="47.29992" lon="4.98657">
        <ele>408.324</ele>
        <time>2012-04-06T10:01:12Z</time>
      </trkpt>
      <trkpt lat="47.29983" lon="4.98677">
        <ele>407.79</ele>
        <time>2012-04-06T10:01:23Z</time>
      </trkpt>
      <trkpt lat="47.29978" lon="4.987">
        <ele>406.761</ele>
        <time>2012-04-06T10:01:34Z</time>
      </trkpt>
      <trkpt lat="47.2998" lon="4.98725">
        <ele>404.335</ele>
        <time>2012-04-06T10:01:45Z</time>
      </trkpt>
      <trkpt lat="47.2998" lon="4.98747">
        <ele>403.387</ele>
        <time>2012-04-06T10:01:56Z</time>
      </trkpt>
      <trkpt lat="47.29973" lon="4.98768">
        <ele>402.259</ele>
        <time>2012-04-06T10:02:07Z</time>
      </trkpt>
      <trkpt lat="47.29965" lon="4.98787">
        <ele>401.859</ele>
        <time>2012-04-06T10:02:18Z</time>
      </trkpt>
      <trkpt lat="47.29957" lon="4.98808">
        <ele>402.125</ele>
        <time>2012-04-06T10:02:29Z</time>
      </trkpt>
      <trkpt lat="47.29952" lon="4.9883">
        <ele>401.853</ele>
        <time>2012-04-06T10:02:40Z</time>
      </trkpt>
      <trkpt lat="47.29957" lon="4.98853">
        <ele>401.787</ele>
        <time>2012-04-06T10:02:51Z</time>
      </trkpt>
      <trkpt lat="47.29963" lon="4.98875">
        <ele>401.865</ele>
        <time>2012-04-06T10:03:02Z</time>
      </trkpt>
      <trkpt lat="47.29972" lon="4.98895">
        <ele>400.484</ele>
        <time>2012-04-06T10:03:13Z</time>
      </trkpt>
      <trkpt lat="47.29977" lon="4.98918">
        <ele>398.679</ele>
        <time>2012-04-06T10:03:24Z</time>
      </trkpt>
      <trkpt lat="47.2998" lon="4.98943">
        <ele>398.115</ele>
        <time>2012-04-06T10:03:35Z</time>
      </trkpt>
      <trkpt lat="47.29987" lon="4.98965">
        <ele>397.306</ele>
        <time>2012-04-06T10:03:46Z</time>
      </trkpt>
      <trkpt lat="47.29995" lon="4.98985">
        <ele>396.085</ele>
        <time>2012-04-06T10:03:57Z</time>
      </trkpt>
      <trkpt lat="47.3001" lon="4.98997">
        <ele>395.206</ele>
        <time>2012-04-06T10:04:08Z</time>
      </trkpt>
      <trkpt lat="47.30012" lon="4.99018">
        <ele>395.211</ele>
        <time>2012-04-06T10:04:19Z</time>
      </trkpt>
      <trkpt lat="47.30008" lon="4.9904">
        <ele>395.964</ele>
        <time>2012-04-06T10:04:30Z</time>
      </trkpt>
      <trkpt lat="47.3" lon="4.99058">
        <ele>396.867</ele>
        <time>2012-04-06T10:04:41Z</time>
      </trkpt>
      <trkpt lat="47.2999" lon="4.99077">
        <ele>397.115</ele>
        <time>2012-04-06T10:04:52Z</time>
      </trkpt>
      <trkpt lat="47.2998" lon="4.99095">
        <ele>396.236</ele>
        <time>2012-04-06T10:05:03Z</time>
      </trkpt>
      <trkpt lat="47.29973" lon="4.99113">
        <ele>396.876</ele>
        <time>2012-04-06T10:05:14Z</time>
      </trkpt>
      <trkpt lat="47.29965" lon="4.99133">
        <ele>398.725</ele>
        <time>2012-04-06T10:05:25Z</time>
      </trkpt>
      <trkpt lat="47.29958" lon="4.99153">
        <ele>399.826</ele>
        <time>2012-04-06T10:05:36Z</time>
      </trkpt>
      <trkpt lat="47.29952" lon="4.99173">
        <ele>400.655</ele>
        <time>2012-04-06T10:05:47Z</time>
      </trkpt>
      <trkpt lat="47.29942" lon="4.9919">
        <ele>400.611</ele>
        <time>2012-04-06T10:05:58Z</time>
      </trkpt>
      <trkpt lat="47.29933" lon="4.9921">
        <ele>401.676</ele>
        <time>2012-04-06T10:06:09Z</time>
      </trkpt>
      <trkpt lat="47.29928" lon="4.99228">
        <ele>401.258</ele>
        <time>2012-04-06T10:06:20Z</time>
      </trkpt>
      <trkpt lat="47.29925" lon="4.99247">
        <ele>402.064</ele>
        <time>2012-04-06T10:06:31Z</time>
      </trkpt>
      <trkpt lat="47.29912" lon="4.99258">
        <ele>400.992</ele>
        <time>2012-04-06T10:06:42Z</time>
      </trkpt>
      <trkpt lat="47.29907" lon="4.9926">
        <ele>399.895</ele>
        <time>2012-04-06T10:06:53Z</time>
      </trkpt>
      <trkpt lat="47.29907" lon="4.99263">
        <ele>400.392</ele>
        <time>2012-04-06T10:07:04Z</time>
      </trkpt>
      <trkpt lat="47.29905" lon="4.99263">
        <ele>401.854</ele>
        <time>2012-04-06T10:07:15Z</time>
      </trkpt>
      <trkpt lat="47.29892" lon="4.99277">
        <ele>399.048</ele>
        <time>2012-04-06T10:07:26Z</time>
      </trkpt>
      <trkpt lat="47.29875" lon="4.99283">
        <ele>398.591</ele>
        <time>2012-04-06T10:07:37Z</time>
      </trkpt>
      <trkpt lat="47.29855" lon="4.99288">
        <ele>397.143</ele>
        <time>2012-04-06T10:07:48Z</time>
      </trkpt>
      <trkpt lat="47.29842" lon="4.9931">
        <ele>395.582</ele>
        <time>2012-04-06T10:07:59Z</time>
      </trkpt>
      <trkpt lat="47.29828" lon="4.99325">
        <ele>395.645</ele>
        <time>2012-04-06T10:08:10Z</time>
      </trkpt>
      <trkpt lat="47.29813" lon="4.99333">
        <ele>394.654</ele>
        <time>2012-04-06T10:08:21Z</time>
      </trkpt>
      <trkpt lat="47.29797" lon="4.99327">
        <ele>395.122</ele>
        <time>2012-04-06T10:08:32Z</time>
      </trkpt>
      <trkpt lat="47.29787" lon="4.99322">
        <ele>397.672</ele>
        <time>2012-04-06T10:08:43Z</time>
      </trkpt>
      <trkpt lat="47.29773" lon="4.99313">
        <ele>399.133</ele>
        <time>2012-04-06T10:08:54Z</time>
      </trkpt>
      <trkpt lat="47.29757" lon="4.99302">
        <ele>398.311</ele>
        <time>2012-04-06T10:09:05Z</time>
      </trkpt>
      <trkpt lat="47.29748" lon="4.99293">
        <ele>400.366</ele>
        <time>2012-04-06T10:09:16Z</time>
      </trkpt>
      <trkpt lat="47.2973" lon="4.9928">
        <ele>401.524</ele>
        <time>2012-04-06T10:09:27Z</time>
      </trkpt>
      <trkpt lat="47.2972" lon="4.99272">
        <ele>404.592</ele>
        <time>2012-04-06T10:09:38Z</time>
      </trkpt>
      <trkpt lat="47.29712" lon="4.99265">
        <ele>403.793</ele>
        <time>2012-04-06T10:09:49Z</time>
      </trkpt>
      <trkpt lat="47.297" lon="4.99255">
        <ele>404.377</ele>
        <time>2012-04-06T10:10:00Z</time>
      </trkpt>
      <trkpt lat="47.29692" lon="4.9925">
        <ele>407.178</ele>
        <time>2012-04-06T10:10:11Z</time>
      </trkpt>
      <trkpt lat="47.29692" lon="4.9925">
        <ele>407.178</ele>
        <time>2012-04-06T10:10:22Z</time>
      </trkpt>
      <trkpt lat="47.29692" lon="4.9925">
        <ele>407.178</ele>
        <time>2012-04-06T10:10:33Z</time>
      </trkpt>
      <trkpt lat="47.29692" lon="4.9925">
        <ele>407.178</ele>
        <time>2012-04-06T10:10:44Z</time>
      </trkpt>
      <trkpt lat="47.29692" lon="4.99252">
        <ele>407.066</ele>
        <time>2012-04-06T10:10:55Z</time>
      </trkpt>
      <trkpt lat="47.29692" lon="4.99252">
        <ele>407.066</ele>
        <time>2012-04-06T10:11:06Z</time>
      </trkpt>
      <trkpt lat="47.29692" lon="4.99252">
        <ele>407.066</ele>
        <time>2012-04-06T10:11:17Z</time>
      </trkpt>
      <trkpt lat="47.29692" lon="4.99252">
        <ele>407.066</ele>
        <time>2012-04-06T10:11:28Z</time>
      </trkpt>
      <trkpt lat="47.29692" lon="4.99252">
        <ele>407.066</ele>
        <time>2012-04-06T10:11:39Z</time>
      </trkpt>
      <trkpt lat="47.29692" lon="4.99252">
        <ele>407.066</ele>
        <time>2012-04-06T10:11:50Z</time>
      </trkpt>
      <trkpt lat="47.29692" lon="4.99252">
        <ele>407.066</ele>
        <time>2012-04-06T10:12:01Z</time>
      </trkpt>
      <trkpt lat="47.2969" lon="4.99252">
        <ele>407.282</ele>
        <time>2012-04-06T10:12:12Z</time>
      </trkpt>
      <trkpt lat="47.29687" lon="4.9925">
        <ele>407.954</ele>
        <time>2012-04-06T10:12:23Z</time>
      </trkpt>
      <trkpt lat="47.29675" lon="4.9925">
        <ele>407.774</ele>
        <time>2012-04-06T10:12:34Z</time>
      </trkpt>
      <trkpt lat="47.29663" lon="4.99253">
        <ele>407.319</ele>
        <time>2012-04-06T10:12:45Z</time>
      </trkpt>
      <trkpt lat="47.2965" lon="4.99258">
        <ele>407.903</ele>
        <time>2012-04-06T10:12:56Z</time>
      </trkpt>
      <trkpt lat="47.29632" lon="4.99258">
        <ele>406.007</ele>
        <time>2012-04-06T10:13:07Z</time>
      </trkpt>
      <trkpt lat="47.29617" lon="4.99262">
        <ele>405.491</ele>
        <time>2012-04-06T10:13:18Z</time>
      </trkpt>
      <trkpt lat="47.29597" lon="4.99267">
        <ele>402.271</ele>
        <time>2012-04-06T10:13:29Z</time>
      </trkpt>
      <trkpt lat="47.29577" lon="4.99275">
        <ele>401.734</ele>
        <time>2012-04-06T10:13:40Z</time>
      </trkpt>
      <trkpt lat="47.29552" lon="4.9928">
        <ele>400.186</ele>
        <time>2012-04-06T10:13:51Z</time>
      </trkpt>
      <trkpt lat="47.29535" lon="4.99283">
        <ele>400.088</ele>
        <time>2012-04-06T10:14:02Z</time>
      </trkpt>
      <trkpt lat="47.2952" lon="4.99287">
        <ele>399.555</ele>
        <time>2012-04-06T10:14:13Z</time>
      </trkpt>
      <trkpt lat="47.2951" lon="4.99293">
        <ele>399.164</ele>
        <time>2012-04-06T10:14:24Z</time>
      </trkpt>
      <trkpt lat="47.29497" lon="4.99295">
        <ele>397.652</ele>
        <time>2012-04-06T10:14:35Z</time>
      </trkpt>
      <trkpt lat="47.29475" lon="4.99293">
        <ele>394.586</ele>
        <time>2012-04-06T10:14:46Z</time>
      </trkpt>
      <trkpt lat="47.29453" lon="4.99303">
        <ele>390.654</ele>
        <time>2012-04-06T10:14:57Z</time>
      </trkpt>
      <trkpt lat="47.29435" lon="4.99315">
        <ele>388.821</ele>
        <time>2012-04-06T10:15:08Z</time>
      </trkpt>
      <trkpt lat="47.29418" lon="4.99322">
        <ele>384.672</ele>
        <time>2012-04-06T10:15:19Z</time>
      </trkpt>
      <trkpt lat="47.29402" lon="4.99335">
        <ele>379.719</ele>
        <time>2012-04-06T10:15:30Z</time>
      </trkpt>
      <trkpt lat="47.29388" lon="4.99352">
        <ele>373.712</ele>
        <time>2012-04-06T10:15:41Z</time>
      </trkpt>
      <trkpt lat="47.29375" lon="4.99368">
        <ele>367.045</ele>
        <time>2012-04-06T10:15:52Z</time>
      </trkpt>
      <trkpt lat="47.2936" lon="4.99382">
        <ele>362.333</ele>
        <time>2012-04-06T10:16:03Z</time>
      </trkpt>
      <trkpt lat="47.29347" lon="4.99395">
        <ele>359.501</ele>
        <time>2012-04-06T10:16:14Z</time>
      </trkpt>
      <trkpt lat="47.29333" lon="4.99408">
        <ele>356.094</ele>
        <time>2012-04-06T10:16:25Z</time>
      </trkpt>
      <trkpt lat="47.29322" lon="4.99423">
        <ele>353.265</ele>
        <time>2012-04-06T10:16:36Z</time>
      </trkpt>
      <trkpt lat="47.29305" lon="4.99435">
        <ele>350.877</ele>
        <time>2012-04-06T10:16:47Z</time>
      </trkpt>
      <trkpt lat="47.29292" lon="4.99448">
        <ele>346.592</ele>
        <time>2012-04-06T10:16:58Z</time>
      </trkpt>
      <trkpt lat="47.2928" lon="4.9946">
        <ele>345.076</ele>
        <time>2012-04-06T10:17:09Z</time>
      </trkpt>
      <trkpt lat="47.29272" lon="4.99478">
        <ele>343.695</ele>
        <time>2012-04-06T10:17:20Z</time>
      </trkpt>
      <trkpt lat="47.29268" lon="4.99495">
        <ele>344.12</ele>
        <time>2012-04-06T10:17:31Z</time>
      </trkpt>
      <trkpt lat="47.29275" lon="4.9952">
        <ele>343.637</ele>
        <time>2012-04-06T10:17:42Z</time>
      </trkpt>
      <trkpt lat="47.2928" lon="4.99547">
        <ele>342.416</ele>
        <time>2012-04-06T10:17:53Z</time>
      </trkpt>
      <trkpt lat="47.2928" lon="4.99572">
        <ele>340.336</ele>
        <time>2012-04-06T10:18:04Z</time>
      </trkpt>
      <trkpt lat="47.29278" lon="4.99595">
        <ele>336.092</ele>
        <time>2012-04-06T10:18:15Z</time>
      </trkpt>
      <trkpt lat="47.29272" lon="4.99615">
        <ele>331.574</ele>
        <time>2012-04-06T10:18:26Z</time>
      </trkpt>
      <trkpt lat="47.29267" lon="4.99638">
        <ele>328.962</ele>
        <time>2012-04-06T10:18:37Z</time>
      </trkpt>
      <trkpt lat="47.29272" lon="4.99662">
        <ele>328.068</ele>
        <time>2012-04-06T10:18:48Z</time>
      </trkpt>
      <trkpt lat="47.29272" lon="4.99685">
        <ele>328.942</ele>
        <time>2012-04-06T10:18:59Z</time>
      </trkpt>
      <trkpt lat="47.2927" lon="4.9971">
        <ele>326.457</ele>
        <time>2012-04-06T10:19:10Z</time>
      </trkpt>
      <trkpt lat="47.29272" lon="4.99728">
        <ele>325.922</ele>
        <time>2012-04-06T10:19:21Z</time>
      </trkpt>
      <trkpt lat="47.29268" lon="4.99753">
        <ele>322.638</ele>
        <time>2012-04-06T10:19:32Z</time>
      </trkpt>
      <trkpt lat="47.29268" lon="4.99778">
        <ele>317.732</ele>
        <time>2012-04-06T10:19:43Z</time>
      </trkpt>
      <trkpt lat="47.29263" lon="4.99798">
        <ele>316.991</ele>
        <time>2012-04-06T10:19:54Z</time>
      </trkpt>
      <trkpt lat="47.29262" lon="4.99822">
        <ele>315.586</ele>
        <time>2012-04-06T10:20:05Z</time>
      </trkpt>
      <trkpt lat="47.29257" lon="4.99845">
        <ele>315.715</ele>
        <time>2012-04-06T10:20:16Z</time>
      </trkpt>
      <trkpt lat="47.29255" lon="4.9987">
        <ele>315.595</ele>
        <time>2012-04-06T10:20:27Z</time>
      </trkpt>
      <trkpt lat="47.29252" lon="4.99892">
        <ele>315.987</ele>
        <time>2012-04-06T10:20:38Z</time>
      </trkpt>
      <trkpt lat="47.2925" lon="4.99913">
        <ele>317.559</ele>
        <time>2012-04-06T10:20:49Z</time>
      </trkpt>
      <trkpt lat="47.2924" lon="4.99937">
        <ele>317.663</ele>
        <time>2012-04-06T10:21:00Z</time>
      </trkpt>
      <trkpt lat="47.29235" lon="4.99962">
        <ele>317.137</ele>
        <time>2012-04-06T10:21:11Z</time>
      </trkpt>
      <trkpt lat="47.2923" lon="4.99983">
        <ele>315.623</ele>
        <time>2012-04-06T10:21:22Z</time>
      </trkpt>
      <trkpt lat="47.29227" lon="5.00005">
        <ele>315.144</ele>
        <time>2012-04-06T10:21:33Z</time>
      </trkpt>
      <trkpt lat="47.29225" lon="5.00035">
        <ele>314.498</ele>
        <time>2012-04-06T10:21:44Z</time>
      </trkpt>
      <trkpt lat="47.2922" lon="5.0006">
        <ele>315.075</ele>
        <time>2012-04-06T10:21:55Z</time>
      </trkpt>
      <trkpt lat="47.29212" lon="5.00087">
        <ele>313.354</ele>
        <time>2012-04-06T10:22:06Z</time>
      </trkpt>
      <trkpt lat="47.29207" lon="5.00113">
        <ele>312.863</ele>
        <time>2012-04-06T10:22:17Z</time>
      </trkpt>
      <trkpt lat="47.292" lon="5.0014">
        <ele>315.054</ele>
        <time>2012-04-06T10:22:28Z</time>
      </trkpt>
      <trkpt lat="47.29188" lon="5.00152">
        <ele>316.869</ele>
        <time>2012-04-06T10:22:39Z</time>
      </trkpt>
      <trkpt lat="47.29177" lon="5.00165">
        <ele>312.665</ele>
        <time>2012-04-06T10:22:50Z</time>
      </trkpt>
      <trkpt lat="47.29195" lon="5.00182">
        <ele>311.299</ele>
        <time>2012-04-06T10:23:01Z</time>
      </trkpt>
      <trkpt lat="47.29205" lon="5.00205">
        <ele>311.418</ele>
        <time>2012-04-06T10:23:12Z</time>
      </trkpt>
      <trkpt lat="47.29217" lon="5.00232">
        <ele>308.6</ele>
        <time>2012-04-06T10:23:23Z</time>
      </trkpt>
      <trkpt lat="47.292" lon="5.00257">
        <ele>305.637</ele>
        <time>2012-04-06T10:23:34Z</time>
      </trkpt>
      <trkpt lat="47.29195" lon="5.00287">
        <ele>301.512</ele>
        <time>2012-04-06T10:23:45Z</time>
      </trkpt>
      <trkpt lat="47.29188" lon="5.00315">
        <ele>299.766</ele>
        <time>2012-04-06T10:23:56Z</time>
      </trkpt>
      <trkpt lat="47.29187" lon="5.00343">
        <ele>299.253</ele>
        <time>2012-04-06T10:24:07Z</time>
      </trkpt>
      <trkpt lat="47.29188" lon="5.00357">
        <ele>298.194</ele>
        <time>2012-04-06T10:24:18Z</time>
      </trkpt>
      <trkpt lat="47.29202" lon="5.00365">
        <ele>297.128</ele>
        <time>2012-04-06T10:24:29Z</time>
      </trkpt>
      <trkpt lat="47.29217" lon="5.00378">
        <ele>294.447</ele>
        <time>2012-04-06T10:24:40Z</time>
      </trkpt>
      <trkpt lat="47.29215" lon="5.00405">
        <ele>293.344</ele>
        <time>2012-04-06T10:24:51Z</time>
      </trkpt>
      <trkpt lat="47.29213" lon="5.0043">
        <ele>297.252</ele>
        <time>2012-04-06T10:25:02Z</time>
      </trkpt>
      <trkpt lat="47.29225" lon="5.00442">
        <ele>300.732</ele>
        <time>2012-04-06T10:25:13Z</time>
      </trkpt>
      <trkpt lat="47.29232" lon="5.00453">
        <ele>299.351</ele>
        <time>2012-04-06T10:25:24Z</time>
      </trkpt>
      <trkpt lat="47.2923" lon="5.00477">
        <ele>295.865</ele>
        <time>2012-04-06T10:25:35Z</time>
      </trkpt>
      <trkpt lat="47.29232" lon="5.005">
        <ele>292.529</ele>
        <time>2012-04-06T10:25:46Z</time>
      </trkpt>
      <trkpt lat="47.29233" lon="5.0052">
        <ele>292.091</ele>
        <time>2012-04-06T10:25:57Z</time>
      </trkpt>
      <trkpt lat="47.2923" lon="5.00538">
        <ele>290.095</ele>
        <time>2012-04-06T10:26:08Z</time>
      </trkpt>
      <trkpt lat="47.29233" lon="5.00562">
        <ele>288.545</ele>
        <time>2012-04-06T10:26:19Z</time>
      </trkpt>
      <trkpt lat="47.2924" lon="5.00582">
        <ele>286.714</ele>
        <time>2012-04-06T10:26:30Z</time>
      </trkpt>
      <trkpt lat="47.2924" lon="5.00585">
        <ele>286.096</ele>
        <time>2012-04-06T10:26:41Z</time>
      </trkpt>
      <trkpt lat="47.2924" lon="5.00587">
        <ele>286.599</ele>
        <time>2012-04-06T10:26:52Z</time>
      </trkpt>
    </trkseg>
  </trk>
</gpx>